M I D A S
Marine Information and Data Acquisition System
Tripno 2107 of the Zeeleeuw from 2011-05-23 06:25:37 to 2011-05-23 16:36:08
Back to CruiseResearch ActivitiesStationsMapUnderway DataData graphs

EquipmentUnitsComment
TimeDGPSUTC
LatitudeDGPSDM.mWGS84
LongitudeDGPSDM.mWGS84
TemperatureSBE03/SBE38deg celciusITS90
ConductivitySBE21S/mITS90
SalinitySBE21 Practical Salinity Units
ChlorophylAChelsea fluorimeterg/lCalibrated in Aceton
Missing or incorrect values are displayed as -999
Sea surface data collected by the RV Zeeleeuw from 2011-05-23 06:20:28 to 2011-05-23 16:52:40
                                                                                    Next 1000 lines
Time Latitude Longitude Temperature Conductivity Salinity ChlorophylA
2011-05-23 06:20:38 51°13.637 2°56.01 18.873 0.008989 0.051004 -3.020363
2011-05-23 06:20:43 51°13.638 2°56.005 18.9149 0.008989 0.051005 -3.020363
2011-05-23 06:20:48 51°13.64 2°55.998 18.9335 0.008989 0.051006 -3.020363
2011-05-23 06:20:53 51°13.642 2°55.991 18.928 0.008989 0.051007 -3.020363
2011-05-23 06:20:59 51°13.644 2°55.982 18.9254 0.008989 0.051008 -3.020363
2011-05-23 06:21:05 51°13.647 2°55.972 18.925 0.008989 0.051008 -3.020363
2011-05-23 06:21:10 51°13.65 2°55.962 18.9202 0.008989 0.051009 -3.020363
2011-05-23 06:21:16 51°13.654 2°55.951 18.9277 0.008989 0.051009 -3.020363
2011-05-23 06:21:21 51°13.657 2°55.941 18.9463 0.008989 0.05101 -3.020363
2011-05-23 06:21:26 51°13.66 2°55.931 18.95 0.008989 0.051011 -3.020363
2011-05-23 06:21:31 51°13.662 2°55.921 18.9543 0.008989 0.051011 -3.020363
2011-05-23 06:21:36 51°13.665 2°55.912 18.9467 0.008989 0.051011 -3.020363
2011-05-23 06:21:41 51°13.668 2°55.902 18.9424 0.008989 0.051012 -3.020363
2011-05-23 06:21:46 51°13.671 2°55.892 18.945 0.008989 0.051013 -3.020363
2011-05-23 06:21:51 51°13.673 2°55.883 18.933 0.008989 0.051014 -3.020363
2011-05-23 06:21:56 51°13.676 2°55.874 18.9425 0.008989 0.051015 -3.020363
2011-05-23 06:22:01 51°13.678 2°55.865 18.9438 0.008989 0.051015 -3.020363
2011-05-23 06:22:05 51°13.68 2°55.859 18.9456 0.008989 0.051015 -3.020363
2011-05-23 06:22:11 51°13.682 2°55.848 18.9375 0.008989 0.051016 -3.020363
2011-05-23 06:22:16 51°13.684 2°55.841 18.9388 0.008989 0.051017 -3.020363
2011-05-23 06:22:21 51°13.686 2°55.833 18.936 0.008989 0.051017 -3.020363
2011-05-23 06:22:25 51°13.687 2°55.827 18.9361 0.008989 0.051018 -3.020363
2011-05-23 06:22:30 51°13.689 2°55.819 18.9333 0.008989 0.051018 -3.020363
2011-05-23 06:22:35 51°13.69 2°55.812 18.4343 0.008989 0.051019 -3.020363
2011-05-23 06:22:40 51°13.691 2°55.805 17.9726 0.008989 0.051021 -3.020363
2011-05-23 06:22:45 51°13.692 2°55.797 17.4896 0.008989 0.051037 -3.020363
2011-05-23 06:22:49 51°13.693 2°55.792 16.992 0.009708 0.054729 -3.020363
2011-05-23 06:22:54 51°13.694 2°55.785 16.6226 3.906255 28.408784 -3.020363
2011-05-23 06:22:59 51°13.694 2°55.779 16.5904 4.282928 31.567223 -3.020363
2011-05-23 06:23:04 51°13.695 2°55.772 16.4303 4.282928 31.567223 -3.020363
2011-05-23 06:23:09 51°13.695 2°55.766 16.3663 4.289567 31.74182 -3.020363
2011-05-23 06:23:13 51°13.695 2°55.761 16.2822 4.204654 31.290861 -3.020363
2011-05-23 06:23:18 51°13.695 2°55.755 16.275 4.156453 31.208685 -3.020363
2011-05-23 06:23:23 51°13.695 2°55.75 16.2204 4.104006 31.058546 -3.020363
2011-05-23 06:23:28 51°13.695 2°55.745 16.1983 4.104006 31.058546 -3.020363
2011-05-23 06:23:33 51°13.695 2°55.741 16.1174 4.072294 31.108519 -3.020363
2011-05-23 06:23:37 51°13.695 2°55.738 16.0858 4.075511 31.35757 -3.020363
2011-05-23 06:23:42 51°13.694 2°55.736 16.055 4.062661 31.381181 -3.020363
2011-05-23 06:23:48 51°13.694 2°55.733 16.0342 4.053853 31.423576 -3.020363
2011-05-23 06:23:52 51°13.694 2°55.732 16.0356 4.046185 31.448202 -3.020363
2011-05-23 06:23:57 51°13.694 2°55.731 15.9968 4.046185 31.448202 -3.020363
2011-05-23 06:24:02 51°13.694 2°55.73 15.9847 4.03862 31.451544 -3.020363
2011-05-23 06:24:08 51°13.695 2°55.729 16.0038 4.033439 31.45901 -3.020363
2011-05-23 06:24:12 51°13.695 2°55.729 15.9705 4.025045 31.434064 -3.020363
2011-05-23 06:24:17 51°13.695 2°55.729 15.95 4.024009 31.472569 -3.020363
2011-05-23 06:24:22 51°13.696 2°55.729 15.9547 4.025875 31.516534 -3.020363
2011-05-23 06:24:28 51°13.697 2°55.729 15.951 4.017688 31.468287 -3.020363
2011-05-23 06:24:33 51°13.698 2°55.73 15.9239 4.017688 31.468287 -3.020363
2011-05-23 06:24:37 51°13.699 2°55.73 15.9539 4.020487 31.519182 -3.020363
2011-05-23 06:24:42 51°13.701 2°55.73 15.9306 4.017171 31.510231 -3.020363
2011-05-23 06:24:47 51°13.703 2°55.73 15.9269 4.011471 31.471382 -3.020363
2011-05-23 06:24:53 51°13.705 2°55.731 15.9433 4.022146 31.583533 -3.020363
2011-05-23 06:24:57 51°13.707 2°55.731 15.9387 4.022457 31.597287 -3.020363
2011-05-23 06:25:02 51°13.71 2°55.73 15.9364 4.022457 31.597287 -3.020363
2011-05-23 06:25:07 51°13.713 2°55.73 15.9366 4.018312 31.57332 -3.020363
2011-05-23 06:25:12 51°13.716 2°55.728 15.9214 4.02795 31.666208 -3.020363
2011-05-23 06:25:17 51°13.72 2°55.727 15.8929 4.026396 31.660398 -3.020363
2011-05-23 06:25:22 51°13.724 2°55.725 15.9086 4.026292 31.6647 -3.020363
2011-05-23 06:25:27 51°13.729 2°55.722 15.8848 4.026292 31.6647 -3.020363
2011-05-23 06:25:32 51°13.733 2°55.718 15.8736 4.02339 31.641866 -3.020363
2011-05-23 06:25:37 51°13.738 2°55.714 15.8586 4.023805 31.646802 -3.020363
2011-05-23 06:25:42 51°13.744 2°55.709 15.8705 4.020696 31.621499 -3.020363
2011-05-23 06:25:47 51°13.75 2°55.704 15.8652 4.022147 31.638776 -3.020363
2011-05-23 06:25:52 51°13.755 2°55.698 15.8582 3.954476 31.058387 -3.020363
2011-05-23 06:25:57 51°13.761 2°55.691 15.8483 3.954476 31.058387 -3.020363
2011-05-23 06:26:02 51°13.768 2°55.684 15.8477 4.017898 31.623653 -3.020363
2011-05-23 06:26:08 51°13.776 2°55.677 15.8333 4.005048 31.518086 -3.020363
2011-05-23 06:26:12 51°13.782 2°55.671 15.8271 4.019349 31.655292 -3.020363
2011-05-23 06:26:17 51°13.789 2°55.665 15.8362 4.01821 31.652461 -3.020363
2011-05-23 06:26:22 51°13.797 2°55.658 15.8101 4.015411 31.632459 -3.020363
2011-05-23 06:26:28 51°13.806 2°55.65 15.8087 4.01251 31.612197 -3.020363
2011-05-23 06:26:32 51°13.813 2°55.644 15.7897 4.01251 31.612197 -3.020363
2011-05-23 06:26:37 51°13.822 2°55.637 15.7835 4.020283 31.685688 -3.020363
2011-05-23 06:26:42 51°13.831 2°55.631 15.7848 4.022044 31.708362 -3.020363
2011-05-23 06:26:47 51°13.84 2°55.623 15.7921 4.021941 31.712687 -3.020363
2011-05-23 06:26:53 51°13.852 2°55.615 15.7828 4.019868 31.69905 -3.020363
2011-05-23 06:26:57 51°13.86 2°55.61 15.7842 4.015516 31.669292 -3.020363
2011-05-23 06:27:02 51°13.871 2°55.603 15.7805 4.015516 31.669292 -3.020363
2011-05-23 06:27:07 51°13.881 2°55.595 15.7708 4.007743 31.612072 -3.020363
2011-05-23 06:27:13 51°13.895 2°55.586 15.772 4.005982 31.605072 -3.020363
2011-05-23 06:27:17 51°13.903 2°55.58 15.7742 4.013132 31.673193 -3.020363
2011-05-23 06:27:22 51°13.915 2°55.573 15.7594 4.017278 31.714252 -3.020363
2011-05-23 06:27:27 51°13.926 2°55.566 15.759 4.017278 31.714252 -3.020363
2011-05-23 06:27:32 51°13.938 2°55.558 15.742 4.016553 31.711146 -3.020363
2011-05-23 06:27:37 51°13.949 2°55.55 15.7417 4.0179 31.724315 -3.020363
2011-05-23 06:27:42 51°13.961 2°55.542 15.7437 4.017796 31.728651 -3.020363
2011-05-23 06:27:47 51°13.973 2°55.533 15.7368 4.01676 31.723464 -3.020363
2011-05-23 06:27:52 51°13.985 2°55.525 15.7395 4.016345 31.723096 -3.020363
2011-05-23 06:27:57 51°13.997 2°55.516 15.7458 4.016345 31.723096 -3.020363
2011-05-23 06:28:02 51°14.009 2°55.507 15.749 4.016346 31.72769 -3.020363
2011-05-23 06:28:08 51°14.023 2°55.497 15.7421 4.016242 31.732686 -3.020363
2011-05-23 06:28:13 51°14.036 2°55.488 15.7423 4.01448 31.723735 -3.020363
2011-05-23 06:28:18 51°14.048 2°55.479 15.7393 4.010439 31.692072 -3.020363
2011-05-23 06:28:23 51°14.06 2°55.47 15.7344 4.005361 31.64997 -3.020363
2011-05-23 06:28:28 51°14.073 2°55.461 15.7416 4.007848 31.672531 -3.020363
2011-05-23 06:28:33 51°14.085 2°55.452 15.7346 4.007848 31.672531 -3.020363
2011-05-23 06:28:38 51°14.098 2°55.443 15.7311 4.00992 31.690788 -3.020363
2011-05-23 06:28:43 51°14.11 2°55.435 15.7324 4.010646 31.697835 -3.020363
2011-05-23 06:28:48 51°14.123 2°55.426 15.7303 4.010439 31.697322 -3.020363
2011-05-23 06:28:53 51°14.135 2°55.418 15.7339 4.010957 31.703199 -3.020363
2011-05-23 06:28:57 51°14.145 2°55.411 15.7248 4.010957 31.703199 -3.020363
2011-05-23 06:29:02 51°14.158 2°55.402 15.7364 4.017071 31.757733 -3.020363
2011-05-23 06:29:07 51°14.171 2°55.393 15.7228 4.018522 31.772493 -3.020363
2011-05-23 06:29:13 51°14.185 2°55.382 15.7249 4.019766 31.786087 -3.020363
2011-05-23 06:29:17 51°14.196 2°55.374 15.7324 4.020388 31.792227 -3.020363
2011-05-23 06:29:22 51°14.208 2°55.364 15.722 4.020802 31.796539 -3.020363
2011-05-23 06:29:27 51°14.221 2°55.353 15.7117 4.020802 31.796539 -3.020363
2011-05-23 06:29:32 51°14.233 2°55.343 15.7104 4.020906 31.799429 -3.020363
2011-05-23 06:29:37 51°14.245 2°55.331 15.7075 4.020492 31.797092 -3.020363
2011-05-23 06:29:43 51°14.26 2°55.317 15.7013 4.020595 31.799981 -3.020363
2011-05-23 06:29:48 51°14.272 2°55.305 15.6992 4.020699 31.801554 -3.020363
2011-05-23 06:29:53 51°14.284 2°55.293 15.7028 4.021217 31.806782 -3.020363
2011-05-23 06:29:58 51°14.296 2°55.279 15.7011 4.02215 31.818302 -3.020363
2011-05-23 06:30:03 51°14.308 2°55.266 15.7066 4.02215 31.818302 -3.020363
2011-05-23 06:30:09 51°14.323 2°55.25 15.703 4.022668 31.827488 -3.020363
2011-05-23 06:30:14 51°14.336 2°55.237 15.6992 4.021839 31.823473 -3.020363
2011-05-23 06:30:19 51°14.349 2°55.224 15.6963 4.020077 31.812549 -3.020363
2011-05-23 06:30:25 51°14.364 2°55.208 15.6838 4.018316 31.799644 -3.020363
2011-05-23 06:30:29 51°14.374 2°55.197 15.6799 4.017694 31.795477 -3.020363
2011-05-23 06:30:35 51°14.389 2°55.18 15.6678 4.017694 31.795477 -3.020363
2011-05-23 06:30:40 51°14.402 2°55.166 15.646 4.017383 31.793393 -3.020363
2011-05-23 06:30:45 51°14.415 2°55.151 15.6278 4.016657 31.787653 -3.020363
2011-05-23 06:30:50 51°14.428 2°55.136 15.6144 4.01645 31.787142 -3.020363
2011-05-23 06:30:55 51°14.442 2°55.121 15.6159 4.010336 31.735838 -3.020363
2011-05-23 06:31:01 51°14.459 2°55.104 15.6001 4.010336 31.735838 -3.020363
2011-05-23 06:31:05 51°14.471 2°55.093 15.5836 3.893138 30.710257 -3.020363
2011-05-23 06:31:10 51°14.486 2°55.08 15.5772 4.022254 31.852879 -3.020363
2011-05-23 06:31:15 51°14.501 2°55.067 15.5676 4.030753 31.940508 -3.020363
2011-05-23 06:31:20 51°14.516 2°55.054 15.5685 4.038111 32.017491 -3.020363
2011-05-23 06:31:25 51°14.531 2°55.04 15.5664 4.045885 32.096887 -3.020363
2011-05-23 06:31:29 51°14.544 2°55.029 15.5614 4.045885 32.096887 -3.020363
2011-05-23 06:31:34 51°14.559 2°55.015 15.5669 4.051793 32.159178 -3.020363
2011-05-23 06:31:39 51°14.575 2°55.002 15.5638 4.057804 32.22378 -3.020363
2011-05-23 06:31:44 51°14.591 2°54.99 15.562 4.063298 32.283178 -3.020363
2011-05-23 06:31:49 51°14.607 2°54.978 15.5631 4.067651 32.331846 -3.020363
2011-05-23 06:31:53 51°14.621 2°54.97 15.5568 4.070968 32.367317 -3.020363
2011-05-23 06:31:58 51°14.638 2°54.96 15.549 4.073144 32.389319 -3.020363
2011-05-23 06:32:03 51°14.655 2°54.95 15.5511 4.073144 32.389319 -3.020363
2011-05-23 06:32:08 51°14.672 2°54.942 15.536 4.074492 32.40397 -3.020363
2011-05-23 06:32:13 51°14.69 2°54.933 15.5256 4.075114 32.411511 -3.020363
2011-05-23 06:32:17 51°14.704 2°54.927 15.519 4.076047 32.421813 -3.020363
2011-05-23 06:32:21 51°14.718 2°54.92 15.5132 4.076358 32.425923 -3.020363
2011-05-23 06:32:27 51°14.74 2°54.911 15.4972 4.077394 32.439174 -3.020363
2011-05-23 06:32:32 51°14.758 2°54.904 15.4964 4.077394 32.439174 -3.020363
2011-05-23 06:32:37 51°14.776 2°54.896 15.4921 4.079675 32.46347 -3.020363
2011-05-23 06:32:42 51°14.794 2°54.889 15.4849 4.082991 32.499686 -3.020363
2011-05-23 06:32:47 51°14.812 2°54.881 15.4791 4.086516 32.539798 -3.020363
2011-05-23 06:32:52 51°14.83 2°54.873 15.4858 4.089729 32.573778 -3.020363
2011-05-23 06:32:57 51°14.847 2°54.864 15.4863 4.089729 32.573778 -3.020363
2011-05-23 06:33:02 51°14.865 2°54.855 15.4576 4.093253 32.615978 -3.020363
2011-05-23 06:33:08 51°14.886 2°54.844 15.449 4.095741 32.644225 -3.020363
2011-05-23 06:33:12 51°14.9 2°54.836 15.4275 4.097918 32.669037 -3.020363
2011-05-23 06:33:17 51°14.918 2°54.827 15.4211 4.100406 32.697308 -3.020363
2011-05-23 06:33:22 51°14.935 2°54.818 15.3935 4.1059 32.750984 -3.020363
2011-05-23 06:33:27 51°14.953 2°54.809 15.3767 4.1059 32.750984 -3.020363
2011-05-23 06:33:33 51°14.974 2°54.799 15.373 4.11243 32.811178 -3.020363
2011-05-23 06:33:37 51°14.988 2°54.793 15.3377 4.119893 32.885198 -3.020363
2011-05-23 06:33:42 51°15.006 2°54.785 15.3195 4.128705 32.974043 -3.020363
2011-05-23 06:33:47 51°15.024 2°54.777 15.3073 4.134717 33.040768 -3.020363
2011-05-23 06:33:52 51°15.042 2°54.768 15.2867 4.140626 33.104559 -3.020363
2011-05-23 06:33:57 51°15.06 2°54.76 15.2576 4.146328 33.170719 -3.020363
2011-05-23 06:34:02 51°15.078 2°54.751 15.2364 4.146328 33.170719 -3.020363
2011-05-23 06:34:07 51°15.096 2°54.743 15.2279 4.15006 33.220045 -3.020363
2011-05-23 06:34:12 51°15.113 2°54.735 15.2154 4.153689 33.268498 -3.020363
2011-05-23 06:34:17 51°15.131 2°54.726 15.1965 4.157628 33.326075 -3.020363
2011-05-23 06:34:22 51°15.149 2°54.717 15.1745 4.158976 33.354223 -3.020363
2011-05-23 06:34:27 51°15.166 2°54.709 15.1667 4.158976 33.354223 -3.020363
2011-05-23 06:34:32 51°15.184 2°54.701 15.16 4.160739 33.387518 -3.020363
2011-05-23 06:34:37 51°15.202 2°54.694 15.1419 4.16188 33.421592 -3.020363
2011-05-23 06:34:42 51°15.221 2°54.688 15.1524 4.162295 33.44147 -3.020363
2011-05-23 06:34:47 51°15.239 2°54.681 15.1261 4.162191 33.458123 -3.020363
2011-05-23 06:34:52 51°15.257 2°54.675 15.1248 4.162295 33.475249 -3.020363
2011-05-23 06:34:57 51°15.276 2°54.669 15.1132 4.162295 33.475249 -3.020363
2011-05-23 06:35:02 51°15.294 2°54.663 15.1215 4.162399 33.491687 -3.020363
2011-05-23 06:35:08 51°15.316 2°54.654 15.0886 4.161777 33.498795 -3.020363
2011-05-23 06:35:12 51°15.33 2°54.65 15.0722 4.161466 33.508706 -3.020363
2011-05-23 06:35:17 51°15.348 2°54.642 15.0741 4.160637 33.510429 -3.020363
2011-05-23 06:35:22 51°15.366 2°54.635 15.0565 4.16043 33.51775 -3.020363
2011-05-23 06:35:28 51°15.387 2°54.625 15.047 4.160119 33.524851 -3.020363
2011-05-23 06:35:32 51°15.402 2°54.618 15.0309 4.160119 33.524851 -3.020363
2011-05-23 06:35:37 51°15.419 2°54.609 15.0349 4.159186 33.52494 -3.020363
2011-05-23 06:35:42 51°15.437 2°54.601 15.0267 4.15929 33.537906 -3.020363
2011-05-23 06:35:47 51°15.455 2°54.592 15.015 4.159187 33.549722 -3.020363
2011-05-23 06:35:53 51°15.475 2°54.581 15.018 4.15898 33.558486 -3.020363
2011-05-23 06:35:57 51°15.489 2°54.575 15.0126 4.158876 33.568901 -3.020363
2011-05-23 06:36:02 51°15.507 2°54.566 15.0236 4.158876 33.568901 -3.020363
2011-05-23 06:36:07 51°15.525 2°54.557 15.0378 4.158669 33.581229 -3.020363
2011-05-23 06:36:12 51°15.542 2°54.549 15.0429 4.158358 33.586947 -3.020363
2011-05-23 06:36:17 51°15.56 2°54.54 15.0553 4.157944 33.593156 -3.020363
2011-05-23 06:36:22 51°15.577 2°54.532 15.061 4.157633 33.598171 -3.020363
2011-05-23 06:36:27 51°15.595 2°54.524 15.0649 4.157633 33.598171 -3.020363
2011-05-23 06:36:32 51°15.613 2°54.515 15.0664 4.156492 33.592856 -3.020363
2011-05-23 06:36:37 51°15.63 2°54.507 15.071 4.154834 33.578595 -3.020363
2011-05-23 06:36:42 51°15.648 2°54.498 15.0719 4.153071 33.559846 -3.020363
2011-05-23 06:36:47 51°15.665 2°54.49 15.0732 4.150894 33.53381 -3.020363
2011-05-23 06:36:52 51°15.683 2°54.483 15.0737 4.149028 33.509883 -3.020363
2011-05-23 06:36:57 51°15.701 2°54.476 15.0769 4.149028 33.509883 -3.020363
2011-05-23 06:37:02 51°15.719 2°54.468 15.067 4.147784 33.493702 -3.020363
2011-05-23 06:37:07 51°15.737 2°54.464 15.0714 4.146851 33.480331 -3.020363
2011-05-23 06:37:12 51°15.755 2°54.456 15.069 4.146022 33.468606 -3.020363
2011-05-23 06:37:17 51°15.773 2°54.45 15.0665 4.145918 33.464841 -3.020363
2011-05-23 06:37:22 51°15.791 2°54.443 15.065 4.145814 33.461076 -3.020363
2011-05-23 06:37:28 51°15.812 2°54.435 15.0602 4.145814 33.458954 -3.020363
2011-05-23 06:37:32 51°15.827 2°54.429 15.0653 4.145814 33.458954 -3.020363
2011-05-23 06:37:37 51°15.844 2°54.42 15.0648 4.146229 33.462691 -3.020363
2011-05-23 06:37:42 51°15.862 2°54.411 15.0651 4.14654 33.466909 -3.020363
2011-05-23 06:37:47 51°15.879 2°54.403 15.0693 4.146851 33.471128 -3.020363
2011-05-23 06:37:52 51°15.895 2°54.394 15.0628 4.147058 33.47512 -3.020363
2011-05-23 06:37:57 51°15.911 2°54.385 15.0666 4.147058 33.47512 -3.020363
2011-05-23 06:38:02 51°15.926 2°54.376 15.0638 4.147058 33.477244 -3.020363
2011-05-23 06:38:07 51°15.939 2°54.368 15.0684 4.146851 33.476791 -3.020363
2011-05-23 06:38:13 51°15.955 2°54.358 15.0648 4.146436 33.473052 -3.020363
2011-05-23 06:38:17 51°15.965 2°54.351 15.0665 4.146125 33.469541 -3.020363
2011-05-23 06:38:22 51°15.978 2°54.343 15.0658 4.145918 33.466256 -3.020363
2011-05-23 06:38:27 51°15.99 2°54.336 15.0656 4.145918 33.466256 -3.020363
2011-05-23 06:38:33 51°16.004 2°54.327 15.0641 4.145607 33.463453 -3.020363
2011-05-23 06:38:37 51°16.013 2°54.322 15.0625 4.145503 33.463226 -3.020363
2011-05-23 06:38:42 51°16.024 2°54.316 15.0743 4.145296 33.461357 -3.020363
2011-05-23 06:38:47 51°16.034 2°54.31 15.0645 4.145089 33.459488 -3.020363
2011-05-23 06:38:52 51°16.045 2°54.305 15.0612 4.144985 33.457846 -3.020363
2011-05-23 06:38:57 51°16.056 2°54.299 15.0646 4.144985 33.457846 -3.020363
2011-05-23 06:39:02 51°16.066 2°54.294 15.0629 4.144985 33.457846 -3.020363
2011-05-23 06:39:07 51°16.076 2°54.289 15.0594 4.144985 33.458554 -3.020363
2011-05-23 06:39:12 51°16.085 2°54.284 15.0613 4.144881 33.459034 -3.020363
2011-05-23 06:39:17 51°16.095 2°54.28 15.0531 4.144674 33.45575 -3.020363
2011-05-23 06:39:22 51°16.105 2°54.275 15.0525 4.14457 33.454816 -3.020363
2011-05-23 06:39:27 51°16.114 2°54.271 15.0553 4.144467 33.455296 -3.020363
2011-05-23 06:39:32 51°16.124 2°54.267 15.0458 4.144467 33.455296 -3.020363
2011-05-23 06:39:37 51°16.133 2°54.263 15.0449 4.144467 33.456004 -3.020363
2011-05-23 06:39:42 51°16.142 2°54.26 15.0431 4.144467 33.457419 -3.020363
2011-05-23 06:39:48 51°16.153 2°54.257 15.0421 4.144467 33.458127 -3.020363
2011-05-23 06:39:52 51°16.161 2°54.255 15.0435 4.144571 33.461184 -3.020363
2011-05-23 06:39:57 51°16.17 2°54.253 15.04 4.144571 33.461184 -3.020363
2011-05-23 06:40:02 51°16.178 2°54.251 15.0385 4.144674 33.46495 -3.020363
2011-05-23 06:40:07 51°16.186 2°54.249 15.0354 4.144985 33.469879 -3.020363
2011-05-23 06:40:13 51°16.196 2°54.248 15.033 4.145193 33.473873 -3.020363
2011-05-23 06:40:17 51°16.202 2°54.247 15.026 4.1454 33.478576 -3.020363
2011-05-23 06:40:22 51°16.209 2°54.246 15.0236 4.145504 33.481636 -3.020363
2011-05-23 06:40:27 51°16.216 2°54.245 15.0244 4.145504 33.481636 -3.020363
2011-05-23 06:40:33 51°16.224 2°54.244 15.0206 4.145607 33.483988 -3.020363
2011-05-23 06:40:37 51°16.229 2°54.244 15.0194 4.145815 33.487984 -3.020363
2011-05-23 06:40:42 51°16.235 2°54.243 15.0218 4.145918 33.490337 -3.020363
2011-05-23 06:40:47 51°16.241 2°54.242 15.0168 4.146333 33.496914 -3.020363
2011-05-23 06:40:53 51°16.248 2°54.24 15.0179 4.146644 33.502556 -3.020363
2011-05-23 06:40:57 51°16.252 2°54.24 15.0171 4.147059 33.510554 -3.020363
2011-05-23 06:41:02 51°16.256 2°54.238 15.0159 4.147059 33.510554 -3.020363
2011-05-23 06:41:07 51°16.26 2°54.238 15.0169 4.147785 33.519231 -3.020363
2011-05-23 06:41:12 51°16.264 2°54.237 15.0182 4.148718 33.529072 -3.020363
2011-05-23 06:41:17 51°16.267 2°54.237 15.0219 4.149547 33.537977 -3.020363
2011-05-23 06:41:22 51°16.27 2°54.237 15.0191 4.150791 33.550628 -3.020363
2011-05-23 06:41:27 51°16.272 2°54.238 15.0172 4.150791 33.550628 -3.020363
2011-05-23 06:41:32 51°16.274 2°54.239 15.017 4.15162 33.558825 -3.020363
2011-05-23 06:41:37 51°16.276 2°54.24 15.0157 4.152657 33.568895 -3.020363
2011-05-23 06:41:42 51°16.276 2°54.242 15.0173 4.153486 33.577094 -3.020363
2011-05-23 06:41:48 51°16.277 2°54.244 15.0181 4.154212 33.583646 -3.020363
2011-05-23 06:41:52 51°16.277 2°54.246 15.0176 4.154834 33.58855 -3.020363
2011-05-23 06:41:57 51°16.278 2°54.248 15.0177 4.154834 33.58855 -3.020363
2011-05-23 06:42:02 51°16.278 2°54.25 15.02 4.15556 33.595814 -3.020363
2011-05-23 06:42:08 51°16.279 2°54.252 15.017 4.156285 33.603079 -3.020363
2011-05-23 06:42:12 51°16.28 2°54.254 15.0206 4.156804 33.607759 -3.020363
2011-05-23 06:42:17 51°16.28 2°54.256 15.0213 4.157218 33.611504 -3.020363
2011-05-23 06:42:22 51°16.281 2°54.258 15.0211 4.157529 33.614312 -3.020363
2011-05-23 06:42:28 51°16.282 2°54.261 15.0199 4.157944 33.618057 -3.020363
2011-05-23 06:42:33 51°16.282 2°54.263 15.0195 4.157944 33.618057 -3.020363
2011-05-23 06:42:37 51°16.283 2°54.264 15.0194 4.158048 33.618993 -3.020363
2011-05-23 06:42:42 51°16.284 2°54.266 15.0172 4.158359 33.621802 -3.020363
2011-05-23 06:42:48 51°16.285 2°54.269 15.0219 4.15867 33.623898 -3.020363
2011-05-23 06:42:53 51°16.286 2°54.271 15.0182 4.158981 33.625995 -3.020363
2011-05-23 06:42:58 51°16.287 2°54.273 15.0217 4.159395 33.629027 -3.020363
2011-05-23 06:43:03 51°16.287 2°54.275 15.0191 4.159395 33.629027 -3.020363
2011-05-23 06:43:08 51°16.288 2°54.277 15.0193 4.159603 33.6309 -3.020363
2011-05-23 06:43:13 51°16.289 2°54.279 15.0178 4.159914 33.634421 -3.020363
2011-05-23 06:43:18 51°16.29 2°54.281 15.0199 4.160121 33.637005 -3.020363
2011-05-23 06:43:23 51°16.291 2°54.283 15.0172 4.160328 33.638878 -3.020363
2011-05-23 06:43:28 51°16.292 2°54.285 15.0196 4.160328 33.638878 -3.020363
2011-05-23 06:43:33 51°16.292 2°54.287 15.0193 4.160536 33.640751 -3.020363
2011-05-23 06:43:37 51°16.293 2°54.289 15.0185 4.160639 33.641687 -3.020363
2011-05-23 06:43:42 51°16.294 2°54.291 15.0208 4.160847 33.644272 -3.020363
2011-05-23 06:43:47 51°16.295 2°54.293 15.0197 4.16095 33.645208 -3.020363
2011-05-23 06:43:53 51°16.296 2°54.295 15.0217 4.161054 33.646145 -3.020363
2011-05-23 06:43:57 51°16.297 2°54.297 15.0208 4.161054 33.646145 -3.020363
2011-05-23 06:44:02 51°16.298 2°54.299 15.0213 4.161158 33.647081 -3.020363
2011-05-23 06:44:08 51°16.299 2°54.301 15.0245 4.161158 33.647081 -3.020363
2011-05-23 06:44:12 51°16.3 2°54.303 15.0207 4.161261 33.648017 -3.020363
2011-05-23 06:44:17 51°16.301 2°54.305 15.0244 4.161261 33.648017 -3.020363
2011-05-23 06:44:22 51°16.302 2°54.307 15.0204 4.161261 33.647305 -3.020363
2011-05-23 06:44:28 51°16.303 2°54.309 15.0205 4.161365 33.648241 -3.020363
2011-05-23 06:44:32 51°16.304 2°54.311 15.0199 4.161365 33.648241 -3.020363
2011-05-23 06:44:37 51°16.305 2°54.313 15.0199 4.161469 33.648464 -3.020363
2011-05-23 06:44:42 51°16.306 2°54.315 15.0238 4.161469 33.647752 -3.020363
2011-05-23 06:44:48 51°16.307 2°54.317 15.0199 4.161572 33.649401 -3.020363
2011-05-23 06:44:53 51°16.308 2°54.319 15.0202 4.161365 33.647528 -3.020363
2011-05-23 06:44:57 51°16.309 2°54.321 15.0197 4.161676 33.650337 -3.020363
2011-05-23 06:45:02 51°16.31 2°54.323 15.0215 4.161676 33.650337 -3.020363
2011-05-23 06:45:07 51°16.311 2°54.325 15.0212 4.161676 33.65105 -3.020363
2011-05-23 06:45:13 51°16.312 2°54.327 15.023 4.161676 33.65105 -3.020363
2011-05-23 06:45:17 51°16.313 2°54.329 15.0222 4.161676 33.65105 -3.020363
2011-05-23 06:45:22 51°16.314 2°54.331 15.0235 4.16178 33.651986 -3.020363
2011-05-23 06:45:27 51°16.315 2°54.332 15.0255 4.16178 33.651986 -3.020363
2011-05-23 06:45:32 51°16.316 2°54.334 15.0264 4.161883 33.652922 -3.020363
2011-05-23 06:45:37 51°16.317 2°54.336 15.0247 4.161987 33.653859 -3.020363
2011-05-23 06:45:42 51°16.318 2°54.338 15.0289 4.162091 33.654795 -3.020363
2011-05-23 06:45:47 51°16.319 2°54.34 15.0238 4.162194 33.655019 -3.020363
2011-05-23 06:45:52 51°16.32 2°54.343 15.0261 4.162402 33.656178 -3.020363
2011-05-23 06:45:57 51°16.321 2°54.345 15.0248 4.162505 33.656402 -3.020363
2011-05-23 06:46:02 51°16.322 2°54.347 15.0254 4.162505 33.656402 -3.020363
2011-05-23 06:46:07 51°16.323 2°54.348 15.0265 4.162609 33.656625 -3.020363
2011-05-23 06:46:12 51°16.324 2°54.35 15.0256 4.162713 33.657562 -3.020363
2011-05-23 06:46:17 51°16.325 2°54.352 15.0257 4.162816 33.657785 -3.020363
2011-05-23 06:46:22 51°16.326 2°54.354 15.0245 4.16292 33.658721 -3.020363
2011-05-23 06:46:28 51°16.328 2°54.356 15.0245 4.16292 33.658721 -3.020363
2011-05-23 06:46:32 51°16.329 2°54.357 15.0256 4.16292 33.658721 -3.020363
2011-05-23 06:46:37 51°16.33 2°54.359 15.0275 4.163024 33.659658 -3.020363
2011-05-23 06:46:42 51°16.331 2°54.361 15.0241 4.163024 33.659658 -3.020363
2011-05-23 06:46:47 51°16.332 2°54.363 15.0255 4.163024 33.659658 -3.020363
2011-05-23 06:46:52 51°16.333 2°54.365 15.0249 4.163127 33.660594 -3.020363
2011-05-23 06:46:57 51°16.335 2°54.367 15.0265 4.163127 33.660594 -3.020363
2011-05-23 06:47:02 51°16.336 2°54.369 15.0246 4.163127 33.660594 -3.020363
2011-05-23 06:47:07 51°16.337 2°54.371 15.0242 4.163127 33.661307 -3.020363
2011-05-23 06:47:13 51°16.338 2°54.373 15.0246 4.163127 33.661307 -3.020363
2011-05-23 06:47:17 51°16.338 2°54.374 15.025 4.163127 33.661307 -3.020363
2011-05-23 06:47:22 51°16.34 2°54.376 15.0242 4.163231 33.662243 -3.020363
2011-05-23 06:47:27 51°16.341 2°54.377 15.0265 4.163231 33.662243 -3.020363
2011-05-23 06:47:32 51°16.342 2°54.379 15.0259 4.163231 33.662243 -3.020363
2011-05-23 06:47:37 51°16.343 2°54.381 15.0255 4.163335 33.662466 -3.020363
2011-05-23 06:47:42 51°16.344 2°54.382 15.0242 4.163335 33.662466 -3.020363
2011-05-23 06:47:47 51°16.345 2°54.384 15.0268 4.163335 33.663179 -3.020363
2011-05-23 06:47:52 51°16.347 2°54.386 15.0266 4.163335 33.663179 -3.020363
2011-05-23 06:47:57 51°16.348 2°54.388 15.026 4.163335 33.663179 -3.020363
2011-05-23 06:48:02 51°16.349 2°54.389 15.0271 4.163335 33.663179 -3.020363
2011-05-23 06:48:07 51°16.351 2°54.39 15.0264 4.163335 33.662466 -3.020363
2011-05-23 06:48:12 51°16.352 2°54.391 15.0251 4.163438 33.663403 -3.020363
2011-05-23 06:48:17 51°16.353 2°54.393 15.024 4.163438 33.664116 -3.020363
2011-05-23 06:48:21 51°16.354 2°54.394 15.0239 4.163438 33.663403 -3.020363
2011-05-23 06:48:27 51°16.355 2°54.396 15.0247 4.163438 33.663403 -3.020363
2011-05-23 06:48:32 51°16.356 2°54.398 15.0262 4.163438 33.663403 -3.020363
2011-05-23 06:48:37 51°16.358 2°54.399 15.0256 4.163542 33.664339 -3.020363
2011-05-23 06:48:41 51°16.359 2°54.401 15.0252 4.163542 33.664339 -3.020363
2011-05-23 06:48:47 51°16.36 2°54.403 15.0255 4.163438 33.663403 -3.020363
2011-05-23 06:48:52 51°16.361 2°54.405 15.0267 4.163438 33.664116 -3.020363
2011-05-23 06:48:57 51°16.362 2°54.406 15.025 4.163438 33.664116 -3.020363
2011-05-23 06:49:02 51°16.363 2°54.408 15.0268 4.163438 33.664116 -3.020363
2011-05-23 06:49:07 51°16.364 2°54.41 15.025 4.163438 33.664116 -3.020363
2011-05-23 06:49:12 51°16.365 2°54.412 15.0259 4.163438 33.664116 -3.020363
2011-05-23 06:49:17 51°16.367 2°54.414 15.0252 4.163438 33.664829 -3.020363
2011-05-23 06:49:22 51°16.368 2°54.416 15.0262 4.163438 33.664116 -3.020363
2011-05-23 06:49:27 51°16.369 2°54.418 15.0258 4.163438 33.664116 -3.020363
2011-05-23 06:49:32 51°16.37 2°54.419 15.0255 4.163438 33.664116 -3.020363
2011-05-23 06:49:37 51°16.371 2°54.421 15.0264 4.163438 33.664116 -3.020363
2011-05-23 06:49:42 51°16.372 2°54.423 15.0299 4.163438 33.664116 -3.020363
2011-05-23 06:49:47 51°16.373 2°54.425 15.0255 4.163438 33.664116 -3.020363
2011-05-23 06:49:52 51°16.374 2°54.427 15.0287 4.163438 33.664116 -3.020363
2011-05-23 06:49:57 51°16.376 2°54.429 15.0269 4.163438 33.664116 -3.020363
2011-05-23 06:50:02 51°16.376 2°54.431 15.0252 4.163438 33.664116 -3.020363
2011-05-23 06:50:07 51°16.377 2°54.433 15.0259 4.163438 33.664116 -3.020363
2011-05-23 06:50:12 51°16.379 2°54.435 15.0268 4.163438 33.664116 -3.020363
2011-05-23 06:50:17 51°16.38 2°54.437 15.0286 4.163542 33.664339 -3.020363
2011-05-23 06:50:22 51°16.381 2°54.438 15.027 4.163542 33.663626 -3.020363
2011-05-23 06:50:27 51°16.382 2°54.44 15.0249 4.163542 33.663626 -3.020363
2011-05-23 06:50:32 51°16.383 2°54.442 15.0238 4.163542 33.663626 -3.020363
2011-05-23 06:50:37 51°16.384 2°54.444 15.0258 4.163542 33.664339 -3.020363
2011-05-23 06:50:42 51°16.385 2°54.446 15.024 4.163542 33.664339 -3.020363
2011-05-23 06:50:47 51°16.386 2°54.448 15.0259 4.163542 33.663626 -3.020363
2011-05-23 06:50:52 51°16.387 2°54.45 15.0269 4.163646 33.664562 -3.020363
2011-05-23 06:50:57 51°16.388 2°54.452 15.025 4.163646 33.664562 -3.020363
2011-05-23 06:51:02 51°16.389 2°54.453 15.0252 4.163646 33.665275 -3.020363
2011-05-23 06:51:07 51°16.391 2°54.455 15.0254 4.163542 33.665052 -3.020363
2011-05-23 06:51:12 51°16.392 2°54.456 15.0245 4.163542 33.665052 -3.020363
2011-05-23 06:51:17 51°16.394 2°54.457 15.0276 4.163438 33.664829 -3.020363
2011-05-23 06:51:22 51°16.396 2°54.458 15.0254 4.163438 33.664116 -3.020363
2011-05-23 06:51:27 51°16.399 2°54.459 15.0259 4.163438 33.664116 -3.020363
2011-05-23 06:51:32 51°16.401 2°54.459 15.0253 4.163438 33.664116 -3.020363
2011-05-23 06:51:37 51°16.403 2°54.458 15.0266 4.163438 33.664829 -3.020363
2011-05-23 06:51:42 51°16.406 2°54.457 15.0255 4.163438 33.664829 -3.020363
2011-05-23 06:51:47 51°16.408 2°54.455 15.0277 4.163438 33.664829 -3.020363
2011-05-23 06:51:53 51°16.411 2°54.452 15.0275 4.163438 33.664829 -3.020363
2011-05-23 06:51:57 51°16.412 2°54.45 15.029 4.163438 33.664829 -3.020363
2011-05-23 06:52:01 51°16.414 2°54.448 15.0291 4.163438 33.664829 -3.020363
2011-05-23 06:52:07 51°16.416 2°54.444 15.0293 4.163438 33.664829 -3.020363
2011-05-23 06:52:12 51°16.418 2°54.44 15.0285 4.163438 33.664829 -3.020363
2011-05-23 06:52:17 51°16.419 2°54.436 15.0293 4.163438 33.664829 -3.020363
2011-05-23 06:52:22 51°16.42 2°54.432 15.0318 4.163542 33.665052 -3.020363
2011-05-23 06:52:27 51°16.421 2°54.427 15.0311 4.163542 33.665052 -3.020363
2011-05-23 06:52:32 51°16.422 2°54.423 15.0322 4.163542 33.664339 -3.020363
2011-05-23 06:52:37 51°16.422 2°54.418 15.0333 4.163646 33.665275 -3.020363
2011-05-23 06:52:42 51°16.422 2°54.413 15.0346 4.163646 33.664562 -3.020363
2011-05-23 06:52:47 51°16.422 2°54.408 15.0354 4.163646 33.664562 -3.020363
2011-05-23 06:52:52 51°16.422 2°54.403 15.0364 4.163646 33.663849 -3.020363
2011-05-23 06:52:57 51°16.421 2°54.399 15.0382 4.163646 33.663849 -3.020363
2011-05-23 06:53:02 51°16.419 2°54.394 15.0396 4.163646 33.663849 -3.020363
2011-05-23 06:53:07 51°16.418 2°54.39 15.0406 4.163646 33.663137 -3.020363
2011-05-23 06:53:12 51°16.416 2°54.386 15.0408 4.163542 33.661488 -3.020363
2011-05-23 06:53:17 51°16.413 2°54.382 15.0424 4.163542 33.659349 -3.020363
2011-05-23 06:53:22 51°16.411 2°54.379 15.0472 4.163645 33.656722 -3.020363
2011-05-23 06:53:27 51°16.407 2°54.376 15.0495 4.163334 33.650352 -3.020363
2011-05-23 06:53:32 51°16.404 2°54.374 15.0485 4.163334 33.650352 -3.020363
2011-05-23 06:53:37 51°16.4 2°54.371 15.05 4.163127 33.645631 -3.020363
2011-05-23 06:53:42 51°16.394 2°54.367 15.0535 4.16292 33.641623 -3.020363
2011-05-23 06:53:47 51°16.387 2°54.363 15.0582 4.162712 33.63904 -3.020363
2011-05-23 06:53:52 51°16.379 2°54.358 15.057 4.162505 33.635745 -3.020363
2011-05-23 06:53:57 51°16.371 2°54.352 15.0546 4.16209 33.629867 -3.020363
2011-05-23 06:54:02 51°16.362 2°54.346 15.0551 4.16209 33.629867 -3.020363
2011-05-23 06:54:07 51°16.353 2°54.339 15.0524 4.161779 33.624925 -3.020363
2011-05-23 06:54:12 51°16.343 2°54.331 15.047 4.161572 33.621631 -3.020363
2011-05-23 06:54:17 51°16.333 2°54.323 15.0418 4.161261 33.616691 -3.020363
2011-05-23 06:54:21 51°16.325 2°54.315 15.0408 4.161053 33.611975 -3.020363
2011-05-23 06:54:27 51°16.314 2°54.303 15.0402 4.161053 33.611975 -3.020363
2011-05-23 06:54:32 51°16.304 2°54.292 15.0394 4.161157 33.611489 -3.020363
2011-05-23 06:54:37 51°16.294 2°54.281 15.0356 4.161675 33.615454 -3.020363
2011-05-23 06:54:42 51°16.284 2°54.269 15.0353 4.162194 33.620842 -3.020363
2011-05-23 06:54:47 51°16.275 2°54.257 15.035 4.162712 33.626941 -3.020363
2011-05-23 06:54:52 51°16.265 2°54.243 15.0311 4.163023 33.631882 -3.020363
2011-05-23 06:54:57 51°16.256 2°54.23 15.0299 4.163023 33.631882 -3.020363
2011-05-23 06:55:02 51°16.247 2°54.215 15.0317 4.163334 33.637535 -3.020363
2011-05-23 06:55:07 51°16.239 2°54.2 15.0303 4.163438 33.640606 -3.020363
2011-05-23 06:55:12 51°16.23 2°54.184 15.0274 4.163438 33.641318 -3.020363
2011-05-23 06:55:17 51°16.222 2°54.168 15.0322 4.163542 33.64439 -3.020363
2011-05-23 06:55:22 51°16.214 2°54.152 15.0306 4.163645 33.64675 -3.020363
2011-05-23 06:55:27 51°16.208 2°54.138 15.0263 4.163542 33.647238 -3.020363
2011-05-23 06:55:32 51°16.202 2°54.124 15.0281 4.163542 33.647238 -3.020363
2011-05-23 06:55:37 51°16.197 2°54.112 15.031 4.163334 33.646079 -3.020363
2011-05-23 06:55:42 51°16.193 2°54.101 15.0233 4.163542 33.648662 -3.020363
2011-05-23 06:55:47 51°16.19 2°54.09 15.0228 4.163749 33.651959 -3.020363
2011-05-23 06:55:52 51°16.188 2°54.081 15.017 4.163853 33.653607 -3.020363
2011-05-23 06:55:57 51°16.186 2°54.072 15.0206 4.163853 33.653607 -3.020363
2011-05-23 06:56:02 51°16.186 2°54.063 15.0186 4.16406 33.656191 -3.020363
2011-05-23 06:56:07 51°16.186 2°54.056 15.0249 4.164267 33.658063 -3.020363
2011-05-23 06:56:13 51°16.187 2°54.049 15.0188 4.164475 33.659935 -3.020363
2011-05-23 06:56:17 51°16.187 2°54.044 15.0173 4.164578 33.661584 -3.020363
2011-05-23 06:56:22 51°16.189 2°54.04 15.0157 4.164682 33.664657 -3.020363
2011-05-23 06:56:27 51°16.19 2°54.036 15.0147 4.164682 33.664657 -3.020363
2011-05-23 06:56:33 51°16.192 2°54.033 15.0233 4.164786 33.667732 -3.020363
2011-05-23 06:56:37 51°16.194 2°54.031 15.0171 4.164786 33.669158 -3.020363
2011-05-23 06:56:41 51°16.194 2°54.03 15.0159 4.164786 33.66987 -3.020363
2011-05-23 06:56:47 51°16.196 2°54.03 15.0188 4.164786 33.670583 -3.020363
2011-05-23 06:56:52 51°16.197 2°54.03 15.0196 4.164786 33.672009 -3.020363
2011-05-23 06:56:57 51°16.199 2°54.03 15.021 4.16489 33.673659 -3.020363
2011-05-23 06:57:02 51°16.2 2°54.03 15.0208 4.16489 33.673659 -3.020363
2011-05-23 06:57:07 51°16.202 2°54.03 15.0237 4.16489 33.675085 -3.020363
2011-05-23 06:57:12 51°16.203 2°54.031 15.0195 4.16489 33.674372 -3.020363
2011-05-23 06:57:17 51°16.205 2°54.031 15.0204 4.16489 33.674372 -3.020363
2011-05-23 06:57:22 51°16.206 2°54.031 15.028 4.164786 33.672722 -3.020363
2011-05-23 06:57:27 51°16.208 2°54.032 15.0252 4.164786 33.672722 -3.020363
2011-05-23 06:57:32 51°16.209 2°54.032 15.0226 4.164993 33.675308 -3.020363
2011-05-23 06:57:37 51°16.211 2°54.033 15.0279 4.16489 33.674372 -3.020363
2011-05-23 06:57:42 51°16.212 2°54.033 15.0289 4.164993 33.674595 -3.020363
2011-05-23 06:57:47 51°16.214 2°54.034 15.0224 4.16489 33.673659 -3.020363
2011-05-23 06:57:52 51°16.215 2°54.035 15.0198 4.165097 33.674818 -3.020363
2011-05-23 06:57:57 51°16.217 2°54.035 15.0254 4.165097 33.674818 -3.020363
2011-05-23 06:58:02 51°16.218 2°54.036 15.025 4.165097 33.673392 -3.020363
2011-05-23 06:58:07 51°16.22 2°54.036 15.0261 4.165201 33.674328 -3.020363
2011-05-23 06:58:12 51°16.222 2°54.037 15.0257 4.165201 33.674328 -3.020363
2011-05-23 06:58:17 51°16.223 2°54.038 15.0263 4.165304 33.673838 -3.020363
2011-05-23 06:58:21 51°16.224 2°54.039 15.0302 4.165408 33.675488 -3.020363
2011-05-23 06:58:27 51°16.226 2°54.04 15.0291 4.165408 33.675488 -3.020363
2011-05-23 06:58:32 51°16.227 2°54.041 15.0362 4.165615 33.67736 -3.020363
2011-05-23 06:58:37 51°16.229 2°54.042 15.0352 4.165512 33.676424 -3.020363
2011-05-23 06:58:42 51°16.23 2°54.043 15.0397 4.165512 33.675711 -3.020363
2011-05-23 06:58:47 51°16.232 2°54.044 15.0436 4.165511 33.674285 -3.020363
2011-05-23 06:58:52 51°16.233 2°54.045 15.0423 4.165615 33.673795 -3.020363
2011-05-23 06:58:57 51°16.234 2°54.046 15.0535 4.165615 33.672369 -3.020363
2011-05-23 06:59:02 51°16.236 2°54.047 15.0618 4.165615 33.672369 -3.020363
2011-05-23 06:59:07 51°16.237 2°54.048 15.0539 4.165719 33.672592 -3.020363
2011-05-23 06:59:12 51°16.238 2°54.05 15.0567 4.164993 33.665328 -3.020363
2011-05-23 06:59:17 51°16.239 2°54.051 15.0637 4.166133 33.672773 -3.020363
2011-05-23 06:59:21 51°16.24 2°54.051 15.058 4.166237 33.670858 -3.020363
2011-05-23 06:59:27 51°16.242 2°54.053 15.062 4.166237 33.670858 -3.020363
2011-05-23 06:59:32 51°16.243 2°54.054 15.053 4.166444 33.669167 -3.020363
2011-05-23 06:59:37 51°16.244 2°54.055 15.0526 4.166652 33.666763 -3.020363
2011-05-23 06:59:42 51°16.245 2°54.056 15.0588 4.167066 33.666232 -3.020363
2011-05-23 06:59:47 51°16.246 2°54.057 15.0534 4.167377 33.667614 -3.020363
2011-05-23 06:59:52 51°16.247 2°54.058 15.0594 4.167584 33.668061 -3.020363
2011-05-23 06:59:57 51°16.248 2°54.06 15.0514 4.167584 33.668061 -3.020363
2011-05-23 07:00:02 51°16.25 2°54.061 15.0513 4.167688 33.667572 -3.020363
2011-05-23 07:00:07 51°16.251 2°54.062 15.0526 4.167895 33.668731 -3.020363
2011-05-23 07:00:12 51°16.252 2°54.063 15.0471 4.167895 33.669443 -3.020363
2011-05-23 07:00:17 51°16.253 2°54.064 15.0482 4.167895 33.669443 -3.020363
2011-05-23 07:00:21 51°16.254 2°54.065 15.0507 4.167895 33.670155 -3.020363
2011-05-23 07:00:27 51°16.255 2°54.067 15.0503 4.167895 33.670155 -3.020363
2011-05-23 07:00:32 51°16.256 2°54.068 15.0404 4.167792 33.669932 -3.020363
2011-05-23 07:00:37 51°16.257 2°54.069 15.0451 4.167792 33.671357 -3.020363
2011-05-23 07:00:42 51°16.259 2°54.07 15.0444 4.167585 33.670198 -3.020363
2011-05-23 07:00:47 51°16.26 2°54.072 15.0426 4.167585 33.67091 -3.020363
2011-05-23 07:00:52 51°16.261 2°54.073 15.0376 4.167481 33.671399 -3.020363
2011-05-23 07:00:57 51°16.262 2°54.074 15.0354 4.167377 33.671176 -3.020363
2011-05-23 07:01:02 51°16.263 2°54.075 15.0288 4.167377 33.671176 -3.020363
2011-05-23 07:01:07 51°16.265 2°54.077 15.0315 4.167274 33.670953 -3.020363
2011-05-23 07:01:12 51°16.266 2°54.078 15.0329 4.16717 33.671442 -3.020363
2011-05-23 07:01:17 51°16.267 2°54.079 15.0337 4.167066 33.671219 -3.020363
2011-05-23 07:01:22 51°16.268 2°54.081 15.0325 4.166859 33.671485 -3.020363
2011-05-23 07:01:27 51°16.269 2°54.082 15.0332 4.166859 33.671485 -3.020363
2011-05-23 07:01:32 51°16.27 2°54.083 15.0331 4.166859 33.672197 -3.020363
2011-05-23 07:01:37 51°16.271 2°54.085 15.0361 4.166548 33.672953 -3.020363
2011-05-23 07:01:42 51°16.272 2°54.086 15.0333 4.166444 33.673442 -3.020363
2011-05-23 07:01:47 51°16.273 2°54.087 15.0349 4.166341 33.673219 -3.020363
2011-05-23 07:01:52 51°16.274 2°54.089 15.0296 4.166237 33.672283 -3.020363
2011-05-23 07:01:57 51°16.276 2°54.09 15.0318 4.166237 33.672283 -3.020363
2011-05-23 07:02:02 51°16.277 2°54.092 15.0328 4.166237 33.672283 -3.020363
2011-05-23 07:02:07 51°16.278 2°54.093 15.0305 4.16603 33.671124 -3.020363
2011-05-23 07:02:12 51°16.279 2°54.094 15.0328 4.16603 33.671837 -3.020363
2011-05-23 07:02:17 51°16.28 2°54.096 15.0337 4.16603 33.671124 -3.020363
2011-05-23 07:02:22 51°16.281 2°54.097 15.033 4.16603 33.671837 -3.020363
2011-05-23 07:02:27 51°16.282 2°54.098 15.0281 4.16603 33.672549 -3.020363
2011-05-23 07:02:32 51°16.283 2°54.1 15.034 4.16603 33.672549 -3.020363
2011-05-23 07:02:37 51°16.284 2°54.101 15.0331 4.16603 33.672549 -3.020363
2011-05-23 07:02:42 51°16.286 2°54.102 15.0291 4.16603 33.672549 -3.020363
2011-05-23 07:02:47 51°16.287 2°54.104 15.029 4.16603 33.672549 -3.020363
2011-05-23 07:02:52 51°16.288 2°54.105 15.0335 4.16603 33.671837 -3.020363
2011-05-23 07:02:57 51°16.289 2°54.107 15.0308 4.16603 33.671837 -3.020363
2011-05-23 07:03:02 51°16.29 2°54.108 15.0287 4.16603 33.671837 -3.020363
2011-05-23 07:03:07 51°16.291 2°54.109 15.0364 4.166133 33.673485 -3.020363
2011-05-23 07:03:12 51°16.292 2°54.111 15.0324 4.166133 33.672773 -3.020363
2011-05-23 07:03:17 51°16.293 2°54.112 15.035 4.166133 33.673485 -3.020363
2011-05-23 07:03:22 51°16.294 2°54.113 15.0318 4.166237 33.674421 -3.020363
2011-05-23 07:03:27 51°16.295 2°54.114 15.0366 4.166237 33.674421 -3.020363
2011-05-23 07:03:32 51°16.296 2°54.116 15.0375 4.166133 33.674198 -3.020363
2011-05-23 07:03:37 51°16.298 2°54.117 15.0346 4.166133 33.674198 -3.020363
2011-05-23 07:03:41 51°16.299 2°54.119 15.0339 4.166133 33.674911 -3.020363
2011-05-23 07:03:47 51°16.3 2°54.12 15.0372 4.166133 33.674911 -3.020363
2011-05-23 07:03:52 51°16.301 2°54.122 15.0366 4.166237 33.674421 -3.020363
2011-05-23 07:03:57 51°16.302 2°54.123 15.0364 4.166237 33.674421 -3.020363
2011-05-23 07:04:02 51°16.303 2°54.125 15.0392 4.166237 33.673709 -3.020363
2011-05-23 07:04:07 51°16.304 2°54.126 15.0392 4.166341 33.673932 -3.020363
2011-05-23 07:04:12 51°16.305 2°54.128 15.0395 4.166341 33.673932 -3.020363
2011-05-23 07:04:17 51°16.306 2°54.129 15.0377 4.166444 33.674868 -3.020363
2011-05-23 07:04:22 51°16.307 2°54.131 15.0398 4.166444 33.674868 -3.020363
2011-05-23 07:04:27 51°16.308 2°54.132 15.0366 4.166444 33.674155 -3.020363
2011-05-23 07:04:32 51°16.309 2°54.134 15.0361 4.166444 33.674155 -3.020363
2011-05-23 07:04:37 51°16.31 2°54.135 15.0356 4.166652 33.675314 -3.020363
2011-05-23 07:04:42 51°16.311 2°54.136 15.0399 4.166652 33.674601 -3.020363
2011-05-23 07:04:47 51°16.312 2°54.138 15.0388 4.166755 33.674824 -3.020363
2011-05-23 07:04:52 51°16.313 2°54.139 15.0431 4.166859 33.675048 -3.020363
2011-05-23 07:04:57 51°16.314 2°54.14 15.0409 4.166859 33.675048 -3.020363
2011-05-23 07:05:02 51°16.315 2°54.142 15.042 4.166963 33.675984 -3.020363
2011-05-23 07:05:07 51°16.316 2°54.143 15.0431 4.166963 33.675984 -3.020363
2011-05-23 07:05:13 51°16.317 2°54.145 15.0423 4.166963 33.675984 -3.020363
2011-05-23 07:05:17 51°16.318 2°54.146 15.0397 4.166963 33.675984 -3.020363
2011-05-23 07:05:22 51°16.319 2°54.147 15.0395 4.166548 33.671527 -3.020363
2011-05-23 07:05:27 51°16.32 2°54.148 15.0411 4.166548 33.671527 -3.020363
2011-05-23 07:05:32 51°16.321 2°54.15 15.0447 4.167066 33.676207 -3.020363
2011-05-23 07:05:37 51°16.322 2°54.151 15.0408 4.16717 33.67643 -3.020363
2011-05-23 07:05:41 51°16.323 2°54.152 15.0419 4.16717 33.675717 -3.020363
2011-05-23 07:05:47 51°16.325 2°54.153 15.0453 4.167274 33.67594 -3.020363
2011-05-23 07:05:52 51°16.326 2°54.155 15.0479 4.167377 33.677589 -3.020363
2011-05-23 07:05:57 51°16.327 2°54.156 15.0445 4.167377 33.676876 -3.020363
2011-05-23 07:06:02 51°16.328 2°54.157 15.0482 4.167377 33.676876 -3.020363
2011-05-23 07:06:07 51°16.329 2°54.159 15.05 4.167377 33.676876 -3.020363
2011-05-23 07:06:12 51°16.33 2°54.16 15.049 4.167377 33.676876 -3.020363
2011-05-23 07:06:17 51°16.331 2°54.162 15.0508 4.167481 33.677812 -3.020363
2011-05-23 07:06:22 51°16.332 2°54.163 15.0521 4.167481 33.677099 -3.020363
2011-05-23 07:06:27 51°16.333 2°54.165 15.049 4.167585 33.67661 -3.020363
2011-05-23 07:06:32 51°16.334 2°54.166 15.0518 4.167585 33.67661 -3.020363
2011-05-23 07:06:37 51°16.335 2°54.167 15.0509 4.167585 33.675897 -3.020363
2011-05-23 07:06:42 51°16.336 2°54.169 15.0511 4.167688 33.67612 -3.020363
2011-05-23 07:06:47 51°16.337 2°54.17 15.0536 4.167688 33.674695 -3.020363
2011-05-23 07:06:52 51°16.337 2°54.172 15.0522 4.167688 33.673983 -3.020363
2011-05-23 07:06:57 51°16.338 2°54.174 15.0529 4.167688 33.673983 -3.020363
2011-05-23 07:07:01 51°16.339 2°54.174 15.0555 4.167792 33.674206 -3.020363
2011-05-23 07:07:07 51°16.34 2°54.176 15.0554 4.167896 33.674429 -3.020363
2011-05-23 07:07:13 51°16.341 2°54.178 15.0555 4.167896 33.673717 -3.020363
2011-05-23 07:07:17 51°16.342 2°54.179 15.0538 4.167896 33.673717 -3.020363
2011-05-23 07:07:21 51°16.343 2°54.181 15.0555 4.167999 33.67394 -3.020363
2011-05-23 07:07:27 51°16.344 2°54.183 15.0563 4.167999 33.67394 -3.020363
2011-05-23 07:07:32 51°16.345 2°54.184 15.0563 4.167999 33.67394 -3.020363
2011-05-23 07:07:37 51°16.346 2°54.186 15.0556 4.167999 33.673228 -3.020363
2011-05-23 07:07:42 51°16.347 2°54.187 15.0543 4.168103 33.673451 -3.020363
2011-05-23 07:07:47 51°16.347 2°54.189 15.0531 4.168103 33.672739 -3.020363
2011-05-23 07:07:52 51°16.348 2°54.19 15.0541 4.168103 33.672739 -3.020363
2011-05-23 07:07:57 51°16.349 2°54.192 15.0538 4.168206 33.672962 -3.020363
2011-05-23 07:08:02 51°16.35 2°54.193 15.0552 4.168206 33.672962 -3.020363
2011-05-23 07:08:07 51°16.351 2°54.195 15.0544 4.168206 33.67225 -3.020363
2011-05-23 07:08:12 51°16.352 2°54.197 15.0556 4.168206 33.67225 -3.020363
2011-05-23 07:08:17 51°16.353 2°54.198 15.0507 4.168206 33.672962 -3.020363
2011-05-23 07:08:22 51°16.354 2°54.2 15.054 4.168206 33.672962 -3.020363
2011-05-23 07:08:27 51°16.355 2°54.201 15.0537 4.168206 33.672962 -3.020363
2011-05-23 07:08:32 51°16.356 2°54.203 15.0534 4.168206 33.672962 -3.020363
2011-05-23 07:08:37 51°16.356 2°54.205 15.0535 4.168103 33.672026 -3.020363
2011-05-23 07:08:41 51°16.357 2°54.206 15.054 4.168103 33.671314 -3.020363
2011-05-23 07:08:47 51°16.358 2°54.208 15.0543 4.168103 33.671314 -3.020363
2011-05-23 07:08:53 51°16.359 2°54.21 15.0537 4.168103 33.672026 -3.020363
2011-05-23 07:08:57 51°16.36 2°54.211 15.0534 4.168103 33.672026 -3.020363
2011-05-23 07:09:02 51°16.361 2°54.213 15.0524 4.167999 33.671803 -3.020363
2011-05-23 07:09:07 51°16.362 2°54.214 15.0528 4.167999 33.671091 -3.020363
2011-05-23 07:09:12 51°16.363 2°54.216 15.0535 4.167999 33.671091 -3.020363
2011-05-23 07:09:17 51°16.364 2°54.217 15.0538 4.167999 33.671091 -3.020363
2011-05-23 07:09:22 51°16.365 2°54.219 15.0534 4.167999 33.671091 -3.020363
2011-05-23 07:09:27 51°16.365 2°54.221 15.0543 4.167999 33.671091 -3.020363
2011-05-23 07:09:32 51°16.366 2°54.222 15.0551 4.168103 33.672026 -3.020363
2011-05-23 07:09:37 51°16.367 2°54.224 15.0579 4.168103 33.672026 -3.020363
2011-05-23 07:09:42 51°16.368 2°54.225 15.0578 4.168103 33.672026 -3.020363
2011-05-23 07:09:47 51°16.369 2°54.227 15.0569 4.168103 33.672739 -3.020363
2011-05-23 07:09:53 51°16.37 2°54.229 15.0565 4.167999 33.671803 -3.020363
2011-05-23 07:09:57 51°16.371 2°54.23 15.0582 4.167999 33.671803 -3.020363
2011-05-23 07:10:02 51°16.372 2°54.231 15.0586 4.167999 33.671803 -3.020363
2011-05-23 07:10:07 51°16.373 2°54.233 15.0582 4.167999 33.671091 -3.020363
2011-05-23 07:10:12 51°16.373 2°54.234 15.0586 4.168103 33.671314 -3.020363
2011-05-23 07:10:17 51°16.374 2°54.236 15.0594 4.168206 33.671537 -3.020363
2011-05-23 07:10:21 51°16.375 2°54.237 15.0593 4.168206 33.670825 -3.020363
2011-05-23 07:10:27 51°16.376 2°54.239 15.0595 4.168206 33.670825 -3.020363
2011-05-23 07:10:32 51°16.377 2°54.241 15.0578 4.168206 33.670825 -3.020363
2011-05-23 07:10:37 51°16.377 2°54.242 15.0584 4.16831 33.671761 -3.020363
2011-05-23 07:10:41 51°16.378 2°54.243 15.0591 4.16831 33.671048 -3.020363
2011-05-23 07:10:47 51°16.379 2°54.245 15.0576 4.16831 33.671048 -3.020363
2011-05-23 07:10:52 51°16.38 2°54.247 15.0576 4.168414 33.671272 -3.020363
2011-05-23 07:10:57 51°16.381 2°54.248 15.0599 4.168414 33.671272 -3.020363
2011-05-23 07:11:02 51°16.382 2°54.25 15.0594 4.168414 33.671272 -3.020363
2011-05-23 07:11:07 51°16.383 2°54.251 15.0579 4.16831 33.670336 -3.020363
2011-05-23 07:11:12 51°16.384 2°54.253 15.0581 4.168414 33.671272 -3.020363
2011-05-23 07:11:17 51°16.384 2°54.254 15.0585 4.168414 33.671272 -3.020363
2011-05-23 07:11:22 51°16.385 2°54.256 15.0588 4.168414 33.671272 -3.020363
2011-05-23 07:11:27 51°16.386 2°54.257 15.0591 4.168414 33.671272 -3.020363
2011-05-23 07:11:32 51°16.387 2°54.259 15.0589 4.168414 33.671272 -3.020363
2011-05-23 07:11:37 51°16.388 2°54.261 15.0588 4.168517 33.671495 -3.020363
2011-05-23 07:11:42 51°16.388 2°54.262 15.058 4.168414 33.670559 -3.020363
2011-05-23 07:11:47 51°16.389 2°54.264 15.057 4.168414 33.670559 -3.020363
2011-05-23 07:11:52 51°16.39 2°54.265 15.0572 4.168414 33.670559 -3.020363
2011-05-23 07:11:57 51°16.391 2°54.267 15.0582 4.168414 33.670559 -3.020363
2011-05-23 07:12:02 51°16.392 2°54.269 15.0579 4.168517 33.672207 -3.020363
2011-05-23 07:12:07 51°16.393 2°54.27 15.0577 4.168414 33.670559 -3.020363
2011-05-23 07:12:12 51°16.393 2°54.272 15.0572 4.168414 33.670559 -3.020363
2011-05-23 07:12:17 51°16.394 2°54.274 15.0576 4.168414 33.670559 -3.020363
2011-05-23 07:12:21 51°16.395 2°54.275 15.0562 4.168414 33.671272 -3.020363
2011-05-23 07:12:27 51°16.396 2°54.277 15.0567 4.168414 33.671272 -3.020363
2011-05-23 07:12:32 51°16.396 2°54.279 15.0573 4.168414 33.671272 -3.020363
2011-05-23 07:12:37 51°16.397 2°54.28 15.0576 4.16831 33.670336 -3.020363
2011-05-23 07:12:41 51°16.398 2°54.281 15.0583 4.16831 33.670336 -3.020363
2011-05-23 07:12:47 51°16.399 2°54.282 15.0563 4.168414 33.671272 -3.020363
2011-05-23 07:12:52 51°16.4 2°54.284 15.0573 4.168414 33.671272 -3.020363
2011-05-23 07:12:57 51°16.401 2°54.286 15.0568 4.168414 33.671272 -3.020363
2011-05-23 07:13:02 51°16.401 2°54.288 15.0584 4.16831 33.670336 -3.020363
2011-05-23 07:13:07 51°16.402 2°54.289 15.0573 4.168414 33.671272 -3.020363
2011-05-23 07:13:12 51°16.403 2°54.291 15.0571 4.16831 33.670336 -3.020363
2011-05-23 07:13:17 51°16.404 2°54.292 15.053 4.168206 33.670113 -3.020363
2011-05-23 07:13:22 51°16.405 2°54.294 15.051 4.16831 33.671048 -3.020363
2011-05-23 07:13:27 51°16.406 2°54.295 15.0537 4.16831 33.671048 -3.020363
2011-05-23 07:13:32 51°16.406 2°54.297 15.0533 4.16831 33.671048 -3.020363
2011-05-23 07:13:37 51°16.407 2°54.299 15.0534 4.16831 33.671048 -3.020363
2011-05-23 07:13:42 51°16.408 2°54.3 15.0535 4.16831 33.670336 -3.020363
2011-05-23 07:13:47 51°16.409 2°54.302 15.0541 4.168414 33.671272 -3.020363
2011-05-23 07:13:53 51°16.41 2°54.304 15.0547 4.16831 33.671048 -3.020363
2011-05-23 07:13:57 51°16.411 2°54.305 15.0539 4.16831 33.671048 -3.020363
2011-05-23 07:14:01 51°16.411 2°54.306 15.0567 4.168206 33.671537 -3.020363
2011-05-23 07:14:07 51°16.412 2°54.308 15.0563 4.168206 33.67225 -3.020363
2011-05-23 07:14:13 51°16.413 2°54.31 15.0577 4.168103 33.671314 -3.020363
2011-05-23 07:14:17 51°16.414 2°54.311 15.0572 4.168103 33.671314 -3.020363
2011-05-23 07:14:21 51°16.414 2°54.312 15.0574 4.168206 33.671537 -3.020363
2011-05-23 07:14:27 51°16.415 2°54.314 15.0583 4.168206 33.671537 -3.020363
2011-05-23 07:14:32 51°16.416 2°54.316 15.0588 4.168206 33.671537 -3.020363
2011-05-23 07:14:37 51°16.417 2°54.317 15.0572 4.168206 33.671537 -3.020363
2011-05-23 07:14:42 51°16.418 2°54.319 15.0578 4.16831 33.671048 -3.020363
2011-05-23 07:14:47 51°16.419 2°54.321 15.0555 4.16831 33.671048 -3.020363
2011-05-23 07:14:52 51°16.42 2°54.322 15.0569 4.168414 33.671272 -3.020363
2011-05-23 07:14:57 51°16.421 2°54.323 15.0543 4.16831 33.670336 -3.020363
2011-05-23 07:15:02 51°16.422 2°54.325 15.0554 4.16831 33.670336 -3.020363
2011-05-23 07:15:07 51°16.422 2°54.327 15.0558 4.168414 33.670559 -3.020363
2011-05-23 07:15:12 51°16.423 2°54.328 15.0564 4.168414 33.671272 -3.020363
2011-05-23 07:15:17 51°16.424 2°54.33 15.0547 4.168414 33.671272 -3.020363
2011-05-23 07:15:22 51°16.425 2°54.331 15.055 4.168414 33.671984 -3.020363
2011-05-23 07:15:27 51°16.426 2°54.332 15.0542 4.16831 33.671048 -3.020363
2011-05-23 07:15:33 51°16.427 2°54.334 15.0546 4.16831 33.671048 -3.020363
2011-05-23 07:15:37 51°16.428 2°54.335 15.0533 4.168414 33.671984 -3.020363
2011-05-23 07:15:41 51°16.428 2°54.336 15.0541 4.168414 33.671984 -3.020363
2011-05-23 07:15:47 51°16.429 2°54.338 15.0526 4.168414 33.671984 -3.020363
2011-05-23 07:15:52 51°16.43 2°54.339 15.0543 4.168414 33.671984 -3.020363
2011-05-23 07:15:57 51°16.431 2°54.34 15.0555 4.168414 33.671984 -3.020363
2011-05-23 07:16:02 51°16.432 2°54.341 15.0531 4.16831 33.671761 -3.020363
2011-05-23 07:16:07 51°16.434 2°54.342 15.0543 4.16831 33.671761 -3.020363
2011-05-23 07:16:12 51°16.436 2°54.342 15.0558 4.16831 33.672473 -3.020363
2011-05-23 07:16:17 51°16.438 2°54.342 15.0573 4.16831 33.672473 -3.020363
2011-05-23 07:16:22 51°16.441 2°54.342 15.0578 4.16831 33.672473 -3.020363
2011-05-23 07:16:27 51°16.444 2°54.341 15.057 4.16831 33.672473 -3.020363
2011-05-23 07:16:32 51°16.448 2°54.34 15.0569 4.16831 33.672473 -3.020363
2011-05-23 07:16:37 51°16.452 2°54.34 15.055 4.168206 33.671537 -3.020363
2011-05-23 07:16:42 51°16.456 2°54.339 15.056 4.168206 33.671537 -3.020363
2011-05-23 07:16:47 51°16.46 2°54.339 15.0571 4.168206 33.670825 -3.020363
2011-05-23 07:16:52 51°16.465 2°54.34 15.0582 4.16831 33.671048 -3.020363
2011-05-23 07:16:57 51°16.47 2°54.341 15.0567 4.16831 33.670336 -3.020363
2011-05-23 07:17:02 51°16.475 2°54.342 15.0547 4.16831 33.670336 -3.020363
2011-05-23 07:17:07 51°16.481 2°54.344 15.0547 4.16831 33.669624 -3.020363
2011-05-23 07:17:12 51°16.486 2°54.346 15.0529 4.168206 33.668689 -3.020363
2011-05-23 07:17:17 51°16.492 2°54.347 15.0533 4.168206 33.668689 -3.020363
2011-05-23 07:17:21 51°16.496 2°54.348 15.0524 4.168206 33.668689 -3.020363
2011-05-23 07:17:27 51°16.503 2°54.349 15.0548 4.168206 33.668689 -3.020363
2011-05-23 07:17:33 51°16.51 2°54.348 15.0551 4.168206 33.667977 -3.020363
2011-05-23 07:17:37 51°16.514 2°54.346 15.0569 4.168103 33.667041 -3.020363
2011-05-23 07:17:41 51°16.518 2°54.345 15.0547 4.167895 33.665882 -3.020363
2011-05-23 07:17:47 51°16.525 2°54.342 15.0558 4.167688 33.664724 -3.020363
2011-05-23 07:17:52 51°16.53 2°54.338 15.0555 4.167273 33.662406 -3.020363
2011-05-23 07:17:57 51°16.535 2°54.334 15.0562 4.167273 33.662406 -3.020363
2011-05-23 07:18:02 51°16.54 2°54.328 15.0568 4.167066 33.661247 -3.020363
2011-05-23 07:18:07 51°16.546 2°54.321 15.0562 4.167066 33.661959 -3.020363
2011-05-23 07:18:12 51°16.551 2°54.313 15.055 4.167066 33.661247 -3.020363
2011-05-23 07:18:17 51°16.557 2°54.303 15.0568 4.167066 33.661247 -3.020363
2011-05-23 07:18:22 51°16.563 2°54.292 15.0544 4.167066 33.661959 -3.020363
2011-05-23 07:18:27 51°16.569 2°54.279 15.0526 4.16717 33.662895 -3.020363
2011-05-23 07:18:32 51°16.575 2°54.264 15.0524 4.16717 33.662895 -3.020363
2011-05-23 07:18:37 51°16.581 2°54.249 15.0516 4.16717 33.662895 -3.020363
2011-05-23 07:18:42 51°16.587 2°54.232 15.0489 4.16717 33.662183 -3.020363
2011-05-23 07:18:47 51°16.594 2°54.215 15.0436 4.16717 33.662183 -3.020363
2011-05-23 07:18:52 51°16.601 2°54.197 15.0383 4.167066 33.661247 -3.020363
2011-05-23 07:18:57 51°16.609 2°54.178 15.028 4.167066 33.661247 -3.020363
2011-05-23 07:19:02 51°16.617 2°54.159 15.0196 4.167273 33.66383 -3.020363
2011-05-23 07:19:07 51°16.624 2°54.14 15.0069 4.167481 33.665701 -3.020363
2011-05-23 07:19:12 51°16.632 2°54.12 15.0004 4.167792 33.66922 -3.020363
2011-05-23 07:19:17 51°16.641 2°54.1 14.9899 4.168103 33.672026 -3.020363
2011-05-23 07:19:22 51°16.649 2°54.079 14.9821 4.168518 33.678618 -3.020363
2011-05-23 07:19:27 51°16.658 2°54.058 14.973 4.168518 33.678618 -3.020363
2011-05-23 07:19:32 51°16.666 2°54.036 14.9612 4.168829 33.686414 -3.020363
2011-05-23 07:19:37 51°16.675 2°54.014 14.9535 4.169036 33.693276 -3.020363
2011-05-23 07:19:41 51°16.682 2°53.996 14.9336 4.169347 33.70393 -3.020363
2011-05-23 07:19:47 51°16.693 2°53.968 14.9167 4.169451 33.71343 -3.020363
2011-05-23 07:19:53 51°16.703 2°53.94 14.9052 4.169555 33.722222 -3.020363
2011-05-23 07:19:57 51°16.709 2°53.92 14.8982 4.169555 33.722222 -3.020363
2011-05-23 07:20:02 51°16.717 2°53.895 14.8875 4.169659 33.731017 -3.020363
2011-05-23 07:20:07 51°16.725 2°53.87 14.887 4.169762 33.740533 -3.020363
2011-05-23 07:20:12 51°16.733 2°53.845 14.8972 4.169866 33.7522 -3.020363
2011-05-23 07:20:17 51°16.741 2°53.82 14.9027 4.16997 33.765308 -3.020363
2011-05-23 07:20:22 51°16.749 2°53.794 14.9048 4.16997 33.779638 -3.020363
2011-05-23 07:20:27 51°16.757 2°53.769 14.9018 4.169659 33.787578 -3.020363
2011-05-23 07:20:32 51°16.765 2°53.744 14.9009 4.169659 33.787578 -3.020363
2011-05-23 07:20:37 51°16.773 2°53.718 14.9005 4.169349 33.79409 -3.020363
2011-05-23 07:20:42 51°16.782 2°53.693 14.8969 4.168727 33.797788 -3.020363
2011-05-23 07:20:47 51°16.791 2°53.668 14.895 4.168105 33.796462 -3.020363
2011-05-23 07:20:53 51°16.801 2°53.638 14.892 4.167379 33.789171 -3.020363
2011-05-23 07:20:57 51°16.808 2°53.617 14.8878 4.167379 33.789171 -3.020363
2011-05-23 07:21:02 51°16.817 2°53.592 14.8839 4.166964 33.784697 -3.020363
2011-05-23 07:21:07 51°16.825 2°53.567 14.868 4.166653 33.782598 -3.020363
2011-05-23 07:21:12 51°16.834 2°53.543 14.86 4.166031 33.776964 -3.020363
2011-05-23 07:21:17 51°16.844 2°53.518 14.8531 4.166239 33.780277 -3.020363
2011-05-23 07:21:21 51°16.851 2°53.499 14.8476 4.166239 33.782431 -3.020363
2011-05-23 07:21:27 51°16.863 2°53.47 14.8407 4.166239 33.782431 -3.020363
2011-05-23 07:21:32 51°16.873 2°53.447 14.8362 4.166342 33.785523 -3.020363
2011-05-23 07:21:37 51°16.884 2°53.424 14.8316 4.16655 33.790274 -3.020363
2011-05-23 07:21:42 51°16.894 2°53.401 14.8271 4.166861 33.798119 -3.020363
2011-05-23 07:21:47 51°16.905 2°53.378 14.8281 4.167172 33.808123 -3.020363
2011-05-23 07:21:52 51°16.916 2°53.356 14.8283 4.166965 33.814152 -3.020363
2011-05-23 07:21:57 51°16.927 2°53.334 14.8265 4.166965 33.814152 -3.020363
2011-05-23 07:22:02 51°16.938 2°53.312 14.8279 4.166447 33.815926 -3.020363
2011-05-23 07:22:07 51°16.949 2°53.29 14.8296 4.165721 33.81582 -3.020363
2011-05-23 07:22:12 51°16.959 2°53.268 14.8305 4.16427 33.809133 -3.020363
2011-05-23 07:22:17 51°16.969 2°53.244 14.831 4.163337 33.805706 -3.020363
2011-05-23 07:22:22 51°16.979 2°53.221 14.8335 4.162197 33.799679 -3.020363
2011-05-23 07:22:27 51°16.989 2°53.198 14.8326 4.16116 33.793153 -3.020363
2011-05-23 07:22:32 51°16.998 2°53.174 14.8347 4.16116 33.793153 -3.020363
2011-05-23 07:22:37 51°17.008 2°53.15 14.839 4.160227 33.786127 -3.020363
2011-05-23 07:22:42 51°17.017 2°53.126 14.8383 4.159294 33.778382 -3.020363
2011-05-23 07:22:47 51°17.026 2°53.101 14.8387 4.158672 33.77274 -3.020363
2011-05-23 07:22:53 51°17.036 2°53.071 14.8405 4.158361 33.769919 -3.020363
2011-05-23 07:22:57 51°17.043 2°53.051 14.8411 4.158361 33.769919 -3.020363
2011-05-23 07:23:02 51°17.051 2°53.026 14.8447 4.158154 33.767319 -3.020363
2011-05-23 07:23:07 51°17.06 2°53.001 14.8466 4.157739 33.762838 -3.020363
2011-05-23 07:23:12 51°17.068 2°52.976 14.8481 4.157428 33.75858 -3.020363
2011-05-23 07:23:17 51°17.076 2°52.95 14.8516 4.157221 33.755262 -3.020363
2011-05-23 07:23:22 51°17.085 2°52.925 14.8554 4.157117 33.752885 -3.020363
2011-05-23 07:23:27 51°17.093 2°52.9 14.8566 4.157117 33.752885 -3.020363
2011-05-23 07:23:32 51°17.102 2°52.875 14.8611 4.156909 33.750286 -3.020363
2011-05-23 07:23:37 51°17.11 2°52.849 14.8674 4.156598 33.746029 -3.020363
2011-05-23 07:23:42 51°17.119 2°52.824 14.8747 4.156287 33.741054 -3.020363
2011-05-23 07:23:47 51°17.127 2°52.799 14.8775 4.155873 33.735858 -3.020363
2011-05-23 07:23:52 51°17.136 2°52.773 14.8784 4.155458 33.729945 -3.020363
2011-05-23 07:23:57 51°17.145 2°52.748 14.8784 4.15494 33.722375 -3.020363
2011-05-23 07:24:02 51°17.153 2°52.723 14.8807 4.15494 33.722375 -3.020363
2011-05-23 07:24:07 51°17.163 2°52.698 14.8812 4.154421 33.714807 -3.020363
2011-05-23 07:24:12 51°17.172 2°52.674 14.8806 4.154007 33.707462 -3.020363
2011-05-23 07:24:17 51°17.181 2°52.649 14.8795 4.153177 33.695645 -3.020363
2011-05-23 07:24:22 51°17.191 2°52.625 14.8784 4.152659 33.686649 -3.020363
2011-05-23 07:24:27 51°17.201 2°52.601 14.8777 4.152659 33.686649 -3.020363
2011-05-23 07:24:33 51°17.213 2°52.572 14.8794 4.109432 33.292493 -3.020363
2011-05-23 07:24:37 51°17.22 2°52.553 14.8834 4.151726 33.672467 -3.020363
2011-05-23 07:24:41 51°17.229 2°52.533 14.8871 4.151518 33.669157 -3.020363
2011-05-23 07:24:47 51°17.241 2°52.505 14.8964 4.151622 33.668664 -3.020363
2011-05-23 07:24:52 51°17.251 2°52.481 14.9036 4.151829 33.670542 -3.020363
2011-05-23 07:24:57 51°17.261 2°52.457 14.9114 4.151829 33.670542 -3.020363
2011-05-23 07:25:02 51°17.272 2°52.434 14.9159 4.15214 33.673359 -3.020363
2011-05-23 07:25:07 51°17.283 2°52.412 14.9165 4.152451 33.676176 -3.020363
2011-05-23 07:25:12 51°17.295 2°52.39 14.9155 4.152659 33.676623 -3.020363
2011-05-23 07:25:17 51°17.307 2°52.368 14.913 4.152659 33.674475 -3.020363
2011-05-23 07:25:22 51°17.32 2°52.347 14.9066 4.15214 33.665487 -3.020363
2011-05-23 07:25:27 51°17.333 2°52.327 14.9025 4.15214 33.665487 -3.020363
2011-05-23 07:25:33 51°17.349 2°52.303 14.8968 4.151311 33.651539 -3.020363
2011-05-23 07:25:37 51°17.359 2°52.287 14.8844 4.150067 33.634559 -3.020363
2011-05-23 07:25:42 51°17.373 2°52.267 14.8808 4.14903 33.62089 -3.020363
2011-05-23 07:25:47 51°17.387 2°52.248 14.8726 4.148097 33.609591 -3.020363
2011-05-23 07:25:52 51°17.401 2°52.228 14.8701 4.146853 33.596907 -3.020363
2011-05-23 07:25:57 51°17.414 2°52.208 14.8715 4.145609 33.587791 -3.020363
2011-05-23 07:26:01 51°17.425 2°52.193 14.8731 4.145609 33.587791 -3.020363
2011-05-23 07:26:07 51°17.442 2°52.168 14.8829 4.144365 33.580102 -3.020363
2011-05-23 07:26:12 51°17.455 2°52.148 14.885 4.143432 33.577365 -3.020363
2011-05-23 07:26:17 51°17.469 2°52.129 14.8801 4.142085 33.573729 -3.020363
2011-05-23 07:26:21 51°17.48 2°52.113 14.8774 4.141359 33.576437 -3.020363
2011-05-23 07:26:27 51°17.496 2°52.089 14.8784 4.141359 33.576437 -3.020363
2011-05-23 07:26:32 51°17.51 2°52.069 14.8671 4.140634 33.577005 -3.020363
2011-05-23 07:26:37 51°17.523 2°52.049 14.8647 4.140115 33.575167 -3.020363
2011-05-23 07:26:42 51°17.536 2°52.029 14.8618 4.140115 33.574453 -3.020363
2011-05-23 07:26:47 51°17.55 2°52.01 14.8549 4.140012 33.5728 -3.020363
2011-05-23 07:26:52 51°17.563 2°51.99 14.8527 4.140012 33.573514 -3.020363
2011-05-23 07:26:57 51°17.576 2°51.969 14.8462 4.140012 33.573514 -3.020363
2011-05-23 07:27:02 51°17.589 2°51.949 14.8443 4.139908 33.573289 -3.020363
2011-05-23 07:27:07 51°17.602 2°51.928 14.836 4.140012 33.577085 -3.020363
2011-05-23 07:27:12 51°17.615 2°51.908 14.8271 4.140427 33.585126 -3.020363
2011-05-23 07:27:17 51°17.628 2°51.887 14.8193 4.141152 33.595988 -3.020363
2011-05-23 07:27:22 51°17.64 2°51.866 14.8145 4.141774 33.605913 -3.020363
2011-05-23 07:27:27 51°17.653 2°51.845 14.81 4.1425 33.616065 -3.020363
2011-05-23 07:27:32 51°17.665 2°51.824 14.8009 4.1425 33.616065 -3.020363
2011-05-23 07:27:37 51°17.678 2°51.802 14.7993 4.135658 33.558352 -3.020363
2011-05-23 07:27:42 51°17.691 2°51.781 14.7999 4.143226 33.633378 -3.020363
2011-05-23 07:27:47 51°17.703 2°51.759 14.7895 4.142915 33.634855 -3.020363
2011-05-23 07:27:53 51°17.718 2°51.734 14.7826 4.142293 33.636378 -3.020363
2011-05-23 07:27:57 51°17.729 2°51.719 14.7826 4.142293 33.636378 -3.020363
2011-05-23 07:28:01 51°17.74 2°51.703 14.7729 4.141982 33.638572 -3.020363
2011-05-23 07:28:07 51°17.756 2°51.679 14.777 4.140738 33.633738 -3.020363
2011-05-23 07:28:12 51°17.77 2°51.66 14.7789 4.140013 33.633605 -3.020363
2011-05-23 07:28:17 51°17.784 2°51.642 14.7681 4.139391 33.632262 -3.020363
2011-05-23 07:28:21 51°17.796 2°51.627 14.7626 4.138769 33.632353 -3.020363
2011-05-23 07:28:27 51°17.813 2°51.606 14.7653 4.138769 33.632353 -3.020363
2011-05-23 07:28:32 51°17.828 2°51.588 14.771 4.138354 33.632892 -3.020363
2011-05-23 07:28:37 51°17.842 2°51.57 14.7607 4.137836 33.633207 -3.020363
2011-05-23 07:28:42 51°17.857 2°51.552 14.7612 4.137007 33.629265 -3.020363
2011-05-23 07:28:47 51°17.871 2°51.534 14.7614 4.137007 33.631417 -3.020363
2011-05-23 07:28:52 51°17.886 2°51.516 14.7653 4.136178 33.627474 -3.020363
2011-05-23 07:28:57 51°17.9 2°51.498 14.758 4.136178 33.627474 -3.020363
2011-05-23 07:29:02 51°17.914 2°51.48 14.7604 4.135763 33.627296 -3.020363
2011-05-23 07:29:07 51°17.929 2°51.462 14.7555 4.135037 33.622142 -3.020363
2011-05-23 07:29:12 51°17.943 2°51.443 14.7519 4.134726 33.62147 -3.020363
2011-05-23 07:29:17 51°17.957 2°51.424 14.7484 4.134623 33.623398 -3.020363
2011-05-23 07:29:22 51°17.971 2°51.405 14.7485 4.134312 33.621291 -3.020363
2011-05-23 07:29:27 51°17.985 2°51.387 14.7424 4.134416 33.622233 -3.020363
2011-05-23 07:29:32 51°17.999 2°51.368 14.7382 4.134416 33.622233 -3.020363
2011-05-23 07:29:37 51°18.013 2°51.348 14.7363 4.134312 33.622726 -3.020363
2011-05-23 07:29:42 51°18.027 2°51.329 14.7351 4.134312 33.624879 -3.020363
2011-05-23 07:29:47 51°18.042 2°51.31 14.7353 4.133794 33.622324 -3.020363
2011-05-23 07:29:53 51°18.058 2°51.287 14.7314 4.13369 33.624253 -3.020363
2011-05-23 07:29:57 51°18.069 2°51.271 14.7298 4.132964 33.62125 -3.020363
2011-05-23 07:30:01 51°18.08 2°51.255 14.7311 4.132964 33.62125 -3.020363
2011-05-23 07:30:07 51°18.097 2°51.232 14.7292 4.132654 33.622014 -3.020363
2011-05-23 07:30:13 51°18.114 2°51.209 14.7317 4.131824 33.616633 -3.020363
2011-05-23 07:30:17 51°18.125 2°51.194 14.7345 4.131513 33.615243 -3.020363
2011-05-23 07:30:21 51°18.136 2°51.178 14.7409 4.13058 33.609637 -3.020363
2011-05-23 07:30:27 51°18.153 2°51.156 14.7354 4.13058 33.609637 -3.020363
2011-05-23 07:30:32 51°18.167 2°51.136 14.7315 4.129751 33.603537 -3.020363
2011-05-23 07:30:37 51°18.18 2°51.117 14.7324 4.129751 33.604972 -3.020363
2011-05-23 07:30:42 51°18.194 2°51.098 14.7339 4.129026 33.599096 -3.020363
2011-05-23 07:30:47 51°18.208 2°51.078 14.7355 4.128818 33.59793 -3.020363
2011-05-23 07:30:52 51°18.222 2°51.058 14.7351 4.128922 33.597437 -3.020363
2011-05-23 07:30:57 51°18.235 2°51.039 14.7408 4.128922 33.597437 -3.020363
2011-05-23 07:31:02 51°18.249 2°51.019 14.74 4.129026 33.598379 -3.020363
2011-05-23 07:31:07 51°18.263 2°51.001 14.7477 4.128507 33.594386 -3.020363
2011-05-23 07:31:12 51°18.278 2°50.983 14.7456 4.128818 33.597212 -3.020363
2011-05-23 07:31:17 51°18.293 2°50.966 14.7402 4.129129 33.600756 -3.020363
2011-05-23 07:31:22 51°18.308 2°50.95 14.7439 4.129129 33.600038 -3.020363
2011-05-23 07:31:27 51°18.324 2°50.934 14.7475 4.129233 33.600262 -3.020363
2011-05-23 07:31:32 51°18.339 2°50.92 14.743 4.129233 33.600262 -3.020363
2011-05-23 07:31:37 51°18.353 2°50.907 14.7438 4.129647 33.601877 -3.020363
2011-05-23 07:31:41 51°18.364 2°50.899 14.7437 4.129751 33.599949 -3.020363
2011-05-23 07:31:47 51°18.378 2°50.887 14.7468 4.129751 33.598514 -3.020363
2011-05-23 07:31:53 51°18.392 2°50.878 14.7455 4.129751 33.598514 -3.020363
2011-05-23 07:31:57 51°18.401 2°50.872 14.7468 4.129855 33.598021 -3.020363
2011-05-23 07:32:02 51°18.41 2°50.867 14.7487 4.129855 33.598021 -3.020363
2011-05-23 07:32:07 51°18.419 2°50.863 14.7473 4.130062 33.599905 -3.020363
2011-05-23 07:32:12 51°18.427 2°50.859 14.7517 4.130062 33.599187 -3.020363
2011-05-23 07:32:17 51°18.435 2°50.856 14.7467 4.129647 33.594703 -3.020363
2011-05-23 07:32:22 51°18.442 2°50.855 14.749 4.130269 33.599636 -3.020363
2011-05-23 07:32:27 51°18.448 2°50.853 14.7495 4.130269 33.599636 -3.020363
2011-05-23 07:32:32 51°18.454 2°50.852 14.7472 4.13058 33.601744 -3.020363
2011-05-23 07:32:37 51°18.458 2°50.852 14.7492 4.130788 33.603627 -3.020363
2011-05-23 07:32:42 51°18.463 2°50.852 14.7515 4.131306 33.608336 -3.020363
2011-05-23 07:32:47 51°18.466 2°50.852 14.7538 4.131617 33.610443 -3.020363
2011-05-23 07:32:52 51°18.469 2°50.852 14.7563 4.132135 33.615152 -3.020363
2011-05-23 07:32:57 51°18.472 2°50.852 14.753 4.132446 33.617259 -3.020363
2011-05-23 07:33:02 51°18.474 2°50.853 14.7505 4.132446 33.617259 -3.020363
2011-05-23 07:33:07 51°18.475 2°50.853 14.7518 4.132342 33.617035 -3.020363
2011-05-23 07:33:12 51°18.476 2°50.854 14.7528 4.132653 33.619861 -3.020363
2011-05-23 07:33:17 51°18.477 2°50.855 14.7519 4.132861 33.621026 -3.020363
2011-05-23 07:33:22 51°18.478 2°50.856 14.7482 4.132964 33.620532 -3.020363
2011-05-23 07:33:27 51°18.478 2°50.857 14.7557 4.133068 33.620756 -3.020363
2011-05-23 07:33:32 51°18.479 2°50.858 14.7484 4.133068 33.620756 -3.020363
2011-05-23 07:33:37 51°18.48 2°50.859 14.7506 4.133172 33.621698 -3.020363
2011-05-23 07:33:41 51°18.48 2°50.859 14.7495 4.133068 33.621474 -3.020363
2011-05-23 07:33:47 51°18.481 2°50.861 14.7484 4.133172 33.622416 -3.020363
2011-05-23 07:33:53 51°18.482 2°50.862 14.75 4.132964 33.62125 -3.020363
2011-05-23 07:33:57 51°18.483 2°50.863 14.7565 4.132964 33.62125 -3.020363
2011-05-23 07:34:02 51°18.484 2°50.864 14.7553 4.133172 33.623134 -3.020363
2011-05-23 07:34:07 51°18.485 2°50.865 14.752 4.133172 33.623134 -3.020363
2011-05-23 07:34:12 51°18.486 2°50.867 14.7488 4.133068 33.622192 -3.020363
2011-05-23 07:34:17 51°18.486 2°50.868 14.7505 4.132653 33.619861 -3.020363
2011-05-23 07:34:22 51°18.487 2°50.869 14.7473 4.132964 33.622686 -3.020363
2011-05-23 07:34:27 51°18.488 2°50.87 14.7526 4.132964 33.622686 -3.020363
2011-05-23 07:34:32 51°18.489 2°50.871 14.752 4.132653 33.618425 -3.020363
2011-05-23 07:34:37 51°18.49 2°50.872 14.7467 4.133172 33.621698 -3.020363
2011-05-23 07:34:42 51°18.491 2°50.873 14.7465 4.133068 33.620756 -3.020363
2011-05-23 07:34:47 51°18.492 2°50.875 14.7471 4.133172 33.622416 -3.020363
2011-05-23 07:34:52 51°18.493 2°50.876 14.7421 4.133068 33.622192 -3.020363
2011-05-23 07:34:57 51°18.494 2°50.877 14.7447 4.133068 33.62291 -3.020363
2011-05-23 07:35:02 51°18.495 2°50.878 14.7421 4.133068 33.62291 -3.020363
2011-05-23 07:35:07 51°18.496 2°50.88 14.7408 4.133068 33.62291 -3.020363
2011-05-23 07:35:12 51°18.497 2°50.88 14.7409 4.133068 33.62291 -3.020363
2011-05-23 07:35:17 51°18.498 2°50.882 14.743 4.133172 33.621698 -3.020363
2011-05-23 07:35:21 51°18.499 2°50.882 14.7441 4.133483 33.620935 -3.020363
2011-05-23 07:35:27 51°18.501 2°50.884 14.7462 4.133483 33.620935 -3.020363
2011-05-23 07:35:33 51°18.502 2°50.885 14.7459 4.133586 33.620441 -3.020363
2011-05-23 07:35:37 51°18.503 2°50.886 14.7475 4.133586 33.619724 -3.020363
2011-05-23 07:35:41 51°18.504 2°50.886 14.7495 4.133586 33.620441 -3.020363
2011-05-23 07:35:47 51°18.505 2°50.888 14.7484 4.133483 33.620217 -3.020363
2011-05-23 07:35:52 51°18.506 2°50.889 14.7486 4.133275 33.618334 -3.020363
2011-05-23 07:35:57 51°18.507 2°50.89 14.7481 4.133275 33.618334 -3.020363
2011-05-23 07:36:02 51°18.508 2°50.891 14.7479 4.133586 33.620441 -3.020363
2011-05-23 07:36:07 51°18.509 2°50.892 14.7461 4.133586 33.619724 -3.020363
2011-05-23 07:36:12 51°18.51 2°50.893 14.7459 4.13369 33.619948 -3.020363
2011-05-23 07:36:17 51°18.511 2°50.894 14.7442 4.133794 33.619454 -3.020363
2011-05-23 07:36:22 51°18.512 2°50.895 14.7451 4.133483 33.615912 -3.020363
2011-05-23 07:36:27 51°18.513 2°50.896 14.7436 4.133897 33.618961 -3.020363
2011-05-23 07:36:32 51°18.514 2°50.897 14.7439 4.133897 33.618961 -3.020363
2011-05-23 07:36:37 51°18.515 2°50.898 14.7438 4.133586 33.616136 -3.020363
2011-05-23 07:36:42 51°18.516 2°50.899 14.7443 4.133275 33.614029 -3.020363
2011-05-23 07:36:47 51°18.517 2°50.9 14.744 4.133897 33.619678 -3.020363
2011-05-23 07:36:52 51°18.518 2°50.901 14.7436 4.13369 33.618512 -3.020363
2011-05-23 07:36:57 51°18.519 2°50.902 14.7449 4.133794 33.619454 -3.020363
2011-05-23 07:37:01 51°18.52 2°50.903 14.7447 4.133794 33.619454 -3.020363
2011-05-23 07:37:07 51°18.521 2°50.904 14.7457 4.13369 33.61923 -3.020363
2011-05-23 07:37:12 51°18.522 2°50.905 14.7481 4.13369 33.61923 -3.020363
2011-05-23 07:37:17 51°18.523 2°50.906 14.7456 4.13369 33.61923 -3.020363
2011-05-23 07:37:21 51°18.524 2°50.907 14.7475 4.13369 33.61923 -3.020363
2011-05-23 07:37:27 51°18.525 2°50.908 14.7472 4.13369 33.61923 -3.020363
2011-05-23 07:37:32 51°18.527 2°50.909 14.7479 4.132861 33.611698 -3.020363
2011-05-23 07:37:37 51°18.528 2°50.91 14.748 4.133586 33.618288 -3.020363
2011-05-23 07:37:42 51°18.529 2°50.911 14.7489 4.13369 33.61923 -3.020363
2011-05-23 07:37:47 51°18.53 2°50.912 14.7484 4.133483 33.61663 -3.020363
2011-05-23 07:37:52 51°18.531 2°50.913 14.75 4.133379 33.615688 -3.020363
2011-05-23 07:37:57 51°18.532 2°50.913 14.7513 4.133379 33.615688 -3.020363
2011-05-23 07:38:02 51°18.532 2°50.914 14.7499 4.133586 33.616854 -3.020363
2011-05-23 07:38:07 51°18.533 2°50.915 14.7473 4.13369 33.617795 -3.020363
2011-05-23 07:38:12 51°18.534 2°50.916 14.7472 4.133794 33.618019 -3.020363
2011-05-23 07:38:17 51°18.535 2°50.916 14.7471 4.132964 33.60977 -3.020363
2011-05-23 07:38:22 51°18.536 2°50.917 14.7459 4.133897 33.617526 -3.020363
2011-05-23 07:38:27 51°18.537 2°50.918 14.7452 4.133897 33.617526 -3.020363
2011-05-23 07:38:32 51°18.538 2°50.919 14.7458 4.133897 33.617526 -3.020363
2011-05-23 07:38:37 51°18.539 2°50.92 14.7447 4.133897 33.616808 -3.020363
2011-05-23 07:38:42 51°18.54 2°50.921 14.748 4.134001 33.61775 -3.020363
2011-05-23 07:38:47 51°18.541 2°50.921 14.7456 4.133897 33.617526 -3.020363
2011-05-23 07:38:53 51°18.542 2°50.922 14.7469 4.133897 33.617526 -3.020363
2011-05-23 07:38:57 51°18.543 2°50.923 14.7455 4.13369 33.61636 -3.020363
2011-05-23 07:39:01 51°18.544 2°50.924 14.747 4.13369 33.61636 -3.020363
2011-05-23 07:39:07 51°18.545 2°50.925 14.7467 4.133379 33.614253 -3.020363
2011-05-23 07:39:12 51°18.546 2°50.926 14.7474 4.13369 33.617078 -3.020363
2011-05-23 07:39:17 51°18.547 2°50.927 14.7496 4.13369 33.617078 -3.020363
2011-05-23 07:39:21 51°18.548 2°50.928 14.7486 4.133483 33.615912 -3.020363
2011-05-23 07:39:27 51°18.549 2°50.929 14.7502 4.133483 33.615912 -3.020363
2011-05-23 07:39:32 51°18.55 2°50.93 14.7495 4.132653 33.60838 -3.020363
2011-05-23 07:39:37 51°18.551 2°50.931 14.7498 4.133586 33.616854 -3.020363
2011-05-23 07:39:42 51°18.552 2°50.932 14.7482 4.133586 33.616854 -3.020363
2011-05-23 07:39:47 51°18.553 2°50.933 14.7496 4.133483 33.615195 -3.020363
2011-05-23 07:39:52 51°18.554 2°50.934 14.7475 4.13369 33.61636 -3.020363
2011-05-23 07:39:57 51°18.555 2°50.934 14.7471 4.13369 33.61636 -3.020363
2011-05-23 07:40:02 51°18.556 2°50.935 14.7465 4.133172 33.610936 -3.020363
2011-05-23 07:40:07 51°18.557 2°50.937 14.7481 4.128714 33.57046 -3.020363
2011-05-23 07:40:12 51°18.558 2°50.938 14.7478 4.133794 33.615867 -3.020363
2011-05-23 07:40:17 51°18.559 2°50.939 14.7496 4.133586 33.614701 -3.020363
2011-05-23 07:40:22 51°18.56 2°50.94 14.7488 4.13255 33.605288 -3.020363
2011-05-23 07:40:27 51°18.561 2°50.941 14.746 4.133483 33.61376 -3.020363
2011-05-23 07:40:32 51°18.562 2°50.942 14.7467 4.133483 33.61376 -3.020363
2011-05-23 07:40:37 51°18.563 2°50.943 14.746 4.133483 33.614477 -3.020363
2011-05-23 07:40:41 51°18.564 2°50.943 14.7449 4.133586 33.615419 -3.020363
2011-05-23 07:40:47 51°18.565 2°50.945 14.7454 4.133586 33.614701 -3.020363
2011-05-23 07:40:53 51°18.566 2°50.946 14.7447 4.133483 33.61376 -3.020363
2011-05-23 07:40:57 51°18.567 2°50.946 14.7448 4.133483 33.61376 -3.020363
2011-05-23 07:41:02 51°18.568 2°50.947 14.7462 4.133586 33.614701 -3.020363
2011-05-23 07:41:07 51°18.569 2°50.948 14.7456 4.133483 33.614477 -3.020363
2011-05-23 07:41:12 51°18.57 2°50.949 14.7448 4.133483 33.614477 -3.020363
2011-05-23 07:41:17 51°18.571 2°50.95 14.744 4.13255 33.606722 -3.020363
2011-05-23 07:41:22 51°18.572 2°50.952 14.7437 4.133275 33.613312 -3.020363
2011-05-23 07:41:27 51°18.573 2°50.953 14.743 4.133275 33.613312 -3.020363
2011-05-23 07:41:32 51°18.574 2°50.954 14.7439 4.133275 33.614029 -3.020363
2011-05-23 07:41:37 51°18.575 2°50.955 14.7437 4.132342 33.604839 -3.020363
2011-05-23 07:41:42 51°18.576 2°50.956 14.742 4.133068 33.612146 -3.020363
2011-05-23 07:41:47 51°18.576 2°50.957 14.7428 4.133275 33.614029 -3.020363
2011-05-23 07:41:52 51°18.577 2°50.958 14.7444 4.133172 33.613088 -3.020363
2011-05-23 07:41:57 51°18.578 2°50.959 14.7427 4.133172 33.613805 -3.020363
2011-05-23 07:42:02 51°18.579 2°50.96 14.7443 4.133172 33.613805 -3.020363
2011-05-23 07:42:07 51°18.58 2°50.961 14.7456 4.133068 33.612864 -3.020363
2011-05-23 07:42:12 51°18.581 2°50.962 14.7459 4.132964 33.611922 -3.020363
2011-05-23 07:42:17 51°18.582 2°50.963 14.7474 4.13255 33.608156 -3.020363
2011-05-23 07:42:21 51°18.582 2°50.964 14.7459 4.132446 33.607932 -3.020363
2011-05-23 07:42:27 51°18.584 2°50.966 14.7467 4.132964 33.612639 -3.020363
2011-05-23 07:42:32 51°18.585 2°50.967 14.7479 4.132964 33.612639 -3.020363
2011-05-23 07:42:37 51°18.585 2°50.968 14.7477 4.132342 33.606991 -3.020363
2011-05-23 07:42:42 51°18.586 2°50.969 14.7498 4.13255 33.608156 -3.020363
2011-05-23 07:42:47 51°18.587 2°50.97 14.7481 4.132653 33.609098 -3.020363
2011-05-23 07:42:52 51°18.588 2°50.971 14.7465 4.132964 33.611205 -3.020363
2011-05-23 07:42:57 51°18.589 2°50.972 14.7468 4.132964 33.611205 -3.020363
2011-05-23 07:43:02 51°18.59 2°50.973 14.7461 4.132757 33.608605 -3.020363
2011-05-23 07:43:07 51°18.591 2°50.974 14.7457 4.133068 33.611429 -3.020363
2011-05-23 07:43:12 51°18.592 2°50.975 14.7441 4.133068 33.610712 -3.020363
2011-05-23 07:43:17 51°18.592 2°50.976 14.7443 4.132757 33.60717 -3.020363
2011-05-23 07:43:22 51°18.593 2°50.977 14.7435 4.133275 33.611877 -3.020363
2011-05-23 07:43:27 51°18.594 2°50.978 14.7438 4.133275 33.611877 -3.020363
2011-05-23 07:43:33 51°18.595 2°50.979 14.7443 4.132342 33.603405 -3.020363
2011-05-23 07:43:37 51°18.596 2°50.98 14.7437 4.132653 33.606946 -3.020363
2011-05-23 07:43:42 51°18.597 2°50.981 14.7447 4.132342 33.604122 -3.020363
2011-05-23 07:43:47 51°18.598 2°50.982 14.7452 4.133068 33.611429 -3.020363